<?xml version="1.0" encoding="UTF-8" standalone="no" ?>
<gpx xmlns="http://www.topografix.com/GPX/1/1" xmlns:xsi="http://www.w3.org/2001/XMLSchema-instance" xsi:schemaLocation="http://www.topografix.com/GPX/1/1 http://www.topografix.com/GPX/1/1/gpx.xsd" version="1.1" creator="VisuGPX - https://www.visugpx.com">
  <metadata>
    <name>Valence - Geneve</name>
    <desc><![CDATA[Valence - Geneve]]></desc>
  </metadata>
  <trk>
    <name><![CDATA[Anne-Marie Geneve Valence Via Rhôna]]></name>
    <trkseg>
      <trkpt lat="46.20169" lon="6.14767">
        <ele>400</ele>
        <time>2012-07-08T14:03:38Z</time>
      </trkpt>
      <trkpt lat="46.2133" lon="6.17461">
        <ele>382</ele>
        <time>2012-07-08T14:39:47Z</time>
      </trkpt>
      <trkpt lat="46.24514" lon="6.19261">
        <ele>374</ele>
        <time>2012-07-09T07:16:35Z</time>
      </trkpt>
      <trkpt lat="46.24484" lon="6.19689">
        <ele>403</ele>
        <time>2012-07-09T07:30:41Z</time>
      </trkpt>
      <trkpt lat="46.24307" lon="6.1982">
        <ele>413</ele>
        <time>2012-07-09T07:32:40Z</time>
      </trkpt>
      <trkpt lat="46.24073" lon="6.19767">
        <ele>413</ele>
        <time>2012-07-09T07:34:14Z</time>
      </trkpt>
      <trkpt lat="46.24045" lon="6.19825">
        <ele>415</ele>
        <time>2012-07-09T07:35:45Z</time>
      </trkpt>
      <trkpt lat="46.23449" lon="6.19312">
        <ele>390</ele>
        <time>2012-07-09T07:54:28Z</time>
      </trkpt>
      <trkpt lat="46.23237" lon="6.18991">
        <ele>379</ele>
        <time>2012-07-09T07:56:22Z</time>
      </trkpt>
      <trkpt lat="46.22701" lon="6.18455">
        <ele>376</ele>
        <time>2012-07-09T07:58:57Z</time>
      </trkpt>
      <trkpt lat="46.21242" lon="6.17343">
        <ele>377</ele>
        <time>2012-07-09T08:06:30Z</time>
      </trkpt>
      <trkpt lat="46.20791" lon="6.16301">
        <ele>377</ele>
        <time>2012-07-09T08:10:22Z</time>
      </trkpt>
      <trkpt lat="46.20741" lon="6.16313">
        <ele>382</ele>
        <time>2012-07-09T08:10:58Z</time>
      </trkpt>
      <trkpt lat="46.2024" lon="6.1563">
        <ele>385</ele>
        <time>2012-07-09T08:14:42Z</time>
      </trkpt>
      <trkpt lat="46.20477" lon="6.14625">
        <ele>382</ele>
        <time>2012-07-09T08:21:25Z</time>
      </trkpt>
      <trkpt lat="46.20421" lon="6.13549">
        <ele>380</ele>
        <time>2012-07-09T08:29:08Z</time>
      </trkpt>
      <trkpt lat="46.20316" lon="6.13418">
        <ele>383</ele>
        <time>2012-07-09T08:30:13Z</time>
      </trkpt>
      <trkpt lat="46.20239" lon="6.12609">
        <ele>375</ele>
        <time>2012-07-09T08:33:28Z</time>
      </trkpt>
      <trkpt lat="46.20009" lon="6.12533">
        <ele>378</ele>
        <time>2012-07-09T08:35:05Z</time>
      </trkpt>
      <trkpt lat="46.20011" lon="6.12392">
        <ele>385</ele>
        <time>2012-07-09T08:37:00Z</time>
      </trkpt>
      <trkpt lat="46.19917" lon="6.12787">
        <ele>379</ele>
        <time>2012-07-09T08:42:00Z</time>
      </trkpt>
      <trkpt lat="46.19713" lon="6.12707">
        <ele>393</ele>
        <time>2012-07-09T08:44:49Z</time>
      </trkpt>
      <trkpt lat="46.19592" lon="6.12344">
        <ele>412</ele>
        <time>2012-07-09T08:47:57Z</time>
      </trkpt>
      <trkpt lat="46.19621" lon="6.1215">
        <ele>417</ele>
        <time>2012-07-09T08:49:34Z</time>
      </trkpt>
      <trkpt lat="46.19411" lon="6.12059">
        <ele>425</ele>
        <time>2012-07-09T08:51:25Z</time>
      </trkpt>
      <trkpt lat="46.1923" lon="6.11667">
        <ele>425</ele>
        <time>2012-07-09T08:53:32Z</time>
      </trkpt>
      <trkpt lat="46.19046" lon="6.11785">
        <ele>427</ele>
        <time>2012-07-09T08:54:47Z</time>
      </trkpt>
      <trkpt lat="46.1896" lon="6.12009">
        <ele>422</ele>
        <time>2012-07-09T08:57:09Z</time>
      </trkpt>
      <trkpt lat="46.18785" lon="6.11731">
        <ele>421</ele>
        <time>2012-07-09T08:59:07Z</time>
      </trkpt>
      <trkpt lat="46.18725" lon="6.11791">
        <ele>419</ele>
        <time>2012-07-09T08:59:30Z</time>
      </trkpt>
      <trkpt lat="46.18497" lon="6.11174">
        <ele>420</ele>
        <time>2012-07-09T09:03:20Z</time>
      </trkpt>
      <trkpt lat="46.18535" lon="6.11047">
        <ele>420</ele>
        <time>2012-07-09T09:04:00Z</time>
      </trkpt>
      <trkpt lat="46.18367" lon="6.1047">
        <ele>426</ele>
        <time>2012-07-09T09:06:18Z</time>
      </trkpt>
      <trkpt lat="46.18107" lon="6.1004">
        <ele>430</ele>
        <time>2012-07-09T09:09:12Z</time>
      </trkpt>
      <trkpt lat="46.18057" lon="6.10057">
        <ele>427</ele>
        <time>2012-07-09T09:09:27Z</time>
      </trkpt>
      <trkpt lat="46.17783" lon="6.09475">
        <ele>421</ele>
        <time>2012-07-09T09:13:18Z</time>
      </trkpt>
      <trkpt lat="46.17716" lon="6.09115">
        <ele>423</ele>
        <time>2012-07-09T09:14:48Z</time>
      </trkpt>
      <trkpt lat="46.17673" lon="6.09147">
        <ele>420</ele>
        <time>2012-07-09T09:15:15Z</time>
      </trkpt>
      <trkpt lat="46.17342" lon="6.08549">
        <ele>430</ele>
        <time>2012-07-09T09:18:27Z</time>
      </trkpt>
      <trkpt lat="46.17402" lon="6.08515">
        <ele>434</ele>
        <time>2012-07-09T09:19:36Z</time>
      </trkpt>
      <trkpt lat="46.17382" lon="6.08255">
        <ele>446</ele>
        <time>2012-07-09T09:21:53Z</time>
      </trkpt>
      <trkpt lat="46.17283" lon="6.08062">
        <ele>452</ele>
        <time>2012-07-09T09:24:01Z</time>
      </trkpt>
      <trkpt lat="46.17402" lon="6.08063">
        <ele>450</ele>
        <time>2012-07-09T09:24:57Z</time>
      </trkpt>
      <trkpt lat="46.17767" lon="6.07775">
        <ele>444</ele>
        <time>2012-07-09T09:27:26Z</time>
      </trkpt>
      <trkpt lat="46.17606" lon="6.07079">
        <ele>438</ele>
        <time>2012-07-09T09:30:09Z</time>
      </trkpt>
      <trkpt lat="46.17926" lon="6.06389">
        <ele>416</ele>
        <time>2012-07-09T09:36:36Z</time>
      </trkpt>
      <trkpt lat="46.18134" lon="6.05649">
        <ele>407</ele>
        <time>2012-07-09T09:38:18Z</time>
      </trkpt>
      <trkpt lat="46.18683" lon="6.04748">
        <ele>392</ele>
        <time>2012-07-09T09:41:24Z</time>
      </trkpt>
      <trkpt lat="46.19054" lon="6.04292">
        <ele>378</ele>
        <time>2012-07-09T09:43:53Z</time>
      </trkpt>
      <trkpt lat="46.18977" lon="6.04163">
        <ele>377</ele>
        <time>2012-07-09T09:44:30Z</time>
      </trkpt>
      <trkpt lat="46.1908" lon="6.03921">
        <ele>376</ele>
        <time>2012-07-09T09:45:26Z</time>
      </trkpt>
      <trkpt lat="46.19317" lon="6.03671">
        <ele>372</ele>
        <time>2012-07-09T09:46:41Z</time>
      </trkpt>
      <trkpt lat="46.19372" lon="6.03078">
        <ele>365</ele>
        <time>2012-07-09T09:48:23Z</time>
      </trkpt>
      <trkpt lat="46.1925" lon="6.02727">
        <ele>362</ele>
        <time>2012-07-09T09:49:40Z</time>
      </trkpt>
      <trkpt lat="46.19293" lon="6.02461">
        <ele>377</ele>
        <time>2012-07-09T09:51:02Z</time>
      </trkpt>
      <trkpt lat="46.19166" lon="6.0237">
        <ele>374</ele>
        <time>2012-07-09T09:53:37Z</time>
      </trkpt>
      <trkpt lat="46.19084" lon="6.02406">
        <ele>371</ele>
        <time>2012-07-09T09:53:58Z</time>
      </trkpt>
      <trkpt lat="46.18748" lon="6.02184">
        <ele>368</ele>
        <time>2012-07-09T09:55:50Z</time>
      </trkpt>
      <trkpt lat="46.18447" lon="6.02231">
        <ele>362</ele>
        <time>2012-07-09T09:57:08Z</time>
      </trkpt>
      <trkpt lat="46.18296" lon="6.02014">
        <ele>357</ele>
        <time>2012-07-09T09:58:08Z</time>
      </trkpt>
      <trkpt lat="46.18292" lon="6.02158">
        <ele>356</ele>
        <time>2012-07-09T10:03:16Z</time>
      </trkpt>
      <trkpt lat="46.18132" lon="6.01711">
        <ele>354</ele>
        <time>2012-07-09T10:05:18Z</time>
      </trkpt>
      <trkpt lat="46.17851" lon="6.01451">
        <ele>353</ele>
        <time>2012-07-09T10:07:11Z</time>
      </trkpt>
      <trkpt lat="46.17751" lon="6.01151">
        <ele>351</ele>
        <time>2012-07-09T10:09:02Z</time>
      </trkpt>
      <trkpt lat="46.17971" lon="6.00949">
        <ele>360</ele>
        <time>2012-07-09T10:11:36Z</time>
      </trkpt>
      <trkpt lat="46.17815" lon="6.00588">
        <ele>356</ele>
        <time>2012-07-09T10:26:23Z</time>
      </trkpt>
      <trkpt lat="46.17783" lon="6.00096">
        <ele>355</ele>
        <time>2012-07-09T10:28:01Z</time>
      </trkpt>
      <trkpt lat="46.17536" lon="6.00022">
        <ele>362</ele>
        <time>2012-07-09T10:29:19Z</time>
      </trkpt>
      <trkpt lat="46.17566" lon="5.99779">
        <ele>363</ele>
        <time>2012-07-09T10:30:41Z</time>
      </trkpt>
      <trkpt lat="46.17511" lon="5.99786">
        <ele>364</ele>
        <time>2012-07-09T10:31:11Z</time>
      </trkpt>
      <trkpt lat="46.17372" lon="6.00533">
        <ele>393</ele>
        <time>2012-07-09T10:36:04Z</time>
      </trkpt>
      <trkpt lat="46.17302" lon="6.00552">
        <ele>401</ele>
        <time>2012-07-09T10:36:49Z</time>
      </trkpt>
      <trkpt lat="46.17112" lon="6.00215">
        <ele>411</ele>
        <time>2012-07-09T10:40:01Z</time>
      </trkpt>
      <trkpt lat="46.1695" lon="6.00125">
        <ele>424</ele>
        <time>2012-07-09T10:49:50Z</time>
      </trkpt>
      <trkpt lat="46.16845" lon="5.99648">
        <ele>413</ele>
        <time>2012-07-09T10:51:25Z</time>
      </trkpt>
      <trkpt lat="46.16847" lon="5.99368">
        <ele>412</ele>
        <time>2012-07-09T11:52:22Z</time>
      </trkpt>
      <trkpt lat="46.16726" lon="5.9887">
        <ele>410</ele>
        <time>2012-07-09T11:54:14Z</time>
      </trkpt>
      <trkpt lat="46.16414" lon="5.98292">
        <ele>380</ele>
        <time>2012-07-09T11:56:45Z</time>
      </trkpt>
      <trkpt lat="46.15877" lon="5.98277">
        <ele>382</ele>
        <time>2012-07-09T11:58:51Z</time>
      </trkpt>
      <trkpt lat="46.15881" lon="5.98199">
        <ele>378</ele>
        <time>2012-07-09T11:59:05Z</time>
      </trkpt>
      <trkpt lat="46.15522" lon="5.97993">
        <ele>369</ele>
        <time>2012-07-09T12:02:07Z</time>
      </trkpt>
      <trkpt lat="46.14714" lon="5.96942">
        <ele>358</ele>
        <time>2012-07-09T12:12:06Z</time>
      </trkpt>
      <trkpt lat="46.14485" lon="5.97055">
        <ele>353</ele>
        <time>2012-07-09T12:13:12Z</time>
      </trkpt>
      <trkpt lat="46.14225" lon="5.9731">
        <ele>353</ele>
        <time>2012-07-09T12:14:16Z</time>
      </trkpt>
      <trkpt lat="46.13783" lon="5.96948">
        <ele>382</ele>
        <time>2012-07-09T12:19:39Z</time>
      </trkpt>
      <trkpt lat="46.13888" lon="5.97159">
        <ele>388</ele>
        <time>2012-07-09T12:21:59Z</time>
      </trkpt>
      <trkpt lat="46.13756" lon="5.97511">
        <ele>416</ele>
        <time>2012-07-09T12:25:17Z</time>
      </trkpt>
      <trkpt lat="46.13438" lon="5.97632">
        <ele>428</ele>
        <time>2012-07-09T12:28:28Z</time>
      </trkpt>
      <trkpt lat="46.13329" lon="5.97778">
        <ele>433</ele>
        <time>2012-07-09T12:34:03Z</time>
      </trkpt>
      <trkpt lat="46.1294" lon="5.98029">
        <ele>439</ele>
        <time>2012-07-09T12:39:30Z</time>
      </trkpt>
      <trkpt lat="46.12363" lon="5.97434">
        <ele>451</ele>
        <time>2012-07-09T12:51:37Z</time>
      </trkpt>
      <trkpt lat="46.12127" lon="5.97093">
        <ele>453</ele>
        <time>2012-07-09T12:53:36Z</time>
      </trkpt>
      <trkpt lat="46.11449" lon="5.96862">
        <ele>458</ele>
        <time>2012-07-09T12:57:09Z</time>
      </trkpt>
      <trkpt lat="46.11261" lon="5.96953">
        <ele>462</ele>
        <time>2012-07-09T12:58:19Z</time>
      </trkpt>
      <trkpt lat="46.11262" lon="5.9661">
        <ele>460</ele>
        <time>2012-07-09T13:00:08Z</time>
      </trkpt>
      <trkpt lat="46.1106" lon="5.96304">
        <ele>464</ele>
        <time>2012-07-09T13:02:02Z</time>
      </trkpt>
      <trkpt lat="46.10862" lon="5.96368">
        <ele>470</ele>
        <time>2012-07-09T13:03:46Z</time>
      </trkpt>
      <trkpt lat="46.108" lon="5.95902">
        <ele>472</ele>
        <time>2012-07-09T13:05:36Z</time>
      </trkpt>
      <trkpt lat="46.10823" lon="5.95294">
        <ele>470</ele>
        <time>2012-07-09T13:07:45Z</time>
      </trkpt>
      <trkpt lat="46.10278" lon="5.94998">
        <ele>492</ele>
        <time>2012-07-09T13:15:18Z</time>
      </trkpt>
      <trkpt lat="46.10208" lon="5.94624">
        <ele>498</ele>
        <time>2012-07-09T13:17:22Z</time>
      </trkpt>
      <trkpt lat="46.10239" lon="5.94072">
        <ele>487</ele>
        <time>2012-07-09T13:18:41Z</time>
      </trkpt>
      <trkpt lat="46.10182" lon="5.93682">
        <ele>486</ele>
        <time>2012-07-09T13:19:32Z</time>
      </trkpt>
      <trkpt lat="46.10237" lon="5.93128">
        <ele>476</ele>
        <time>2012-07-09T13:20:43Z</time>
      </trkpt>
      <trkpt lat="46.10165" lon="5.93115">
        <ele>482</ele>
        <time>2012-07-09T13:21:12Z</time>
      </trkpt>
      <trkpt lat="46.10226" lon="5.92665">
        <ele>490</ele>
        <time>2012-07-09T13:23:31Z</time>
      </trkpt>
      <trkpt lat="46.10986" lon="5.91458">
        <ele>481</ele>
        <time>2012-07-09T13:28:04Z</time>
      </trkpt>
      <trkpt lat="46.1109" lon="5.90925">
        <ele>475</ele>
        <time>2012-07-09T13:29:45Z</time>
      </trkpt>
      <trkpt lat="46.11196" lon="5.90684">
        <ele>481</ele>
        <time>2012-07-09T13:30:38Z</time>
      </trkpt>
      <trkpt lat="46.11736" lon="5.90123">
        <ele>474</ele>
        <time>2012-07-09T13:33:33Z</time>
      </trkpt>
      <trkpt lat="46.11751" lon="5.89393">
        <ele>437</ele>
        <time>2012-07-09T13:42:28Z</time>
      </trkpt>
      <trkpt lat="46.1072" lon="5.89027">
        <ele>427</ele>
        <time>2012-07-09T13:44:49Z</time>
      </trkpt>
      <trkpt lat="46.10247" lon="5.89534">
        <ele>445</ele>
        <time>2012-07-09T13:49:26Z</time>
      </trkpt>
      <trkpt lat="46.09842" lon="5.8981">
        <ele>471</ele>
        <time>2012-07-09T13:53:52Z</time>
      </trkpt>
      <trkpt lat="46.09418" lon="5.89853">
        <ele>486</ele>
        <time>2012-07-09T13:58:38Z</time>
      </trkpt>
      <trkpt lat="46.09107" lon="5.90004">
        <ele>516</ele>
        <time>2012-07-09T14:01:58Z</time>
      </trkpt>
      <trkpt lat="46.0855" lon="5.89998">
        <ele>501</ele>
        <time>2012-07-09T14:06:16Z</time>
      </trkpt>
      <trkpt lat="46.08413" lon="5.90169">
        <ele>528</ele>
        <time>2012-07-09T14:11:31Z</time>
      </trkpt>
      <trkpt lat="46.08152" lon="5.90102">
        <ele>535</ele>
        <time>2012-07-09T14:14:26Z</time>
      </trkpt>
      <trkpt lat="46.08114" lon="5.90179">
        <ele>548</ele>
        <time>2012-07-09T14:15:06Z</time>
      </trkpt>
      <trkpt lat="46.07415" lon="5.90071">
        <ele>571</ele>
        <time>2012-07-09T14:33:27Z</time>
      </trkpt>
      <trkpt lat="46.0708" lon="5.89685">
        <ele>546</ele>
        <time>2012-07-09T14:34:30Z</time>
      </trkpt>
      <trkpt lat="46.06554" lon="5.89759">
        <ele>519</ele>
        <time>2012-07-09T14:35:32Z</time>
      </trkpt>
      <trkpt lat="46.06457" lon="5.89622">
        <ele>510</ele>
        <time>2012-07-09T14:35:52Z</time>
      </trkpt>
      <trkpt lat="46.06351" lon="5.89155">
        <ele>500</ele>
        <time>2012-07-09T14:38:26Z</time>
      </trkpt>
      <trkpt lat="46.06473" lon="5.89191">
        <ele>497</ele>
        <time>2012-07-09T14:44:07Z</time>
      </trkpt>
      <trkpt lat="46.06333" lon="5.89132">
        <ele>502</ele>
        <time>2012-07-09T14:48:33Z</time>
      </trkpt>
      <trkpt lat="46.06279" lon="5.8893">
        <ele>506</ele>
        <time>2012-07-09T14:50:00Z</time>
      </trkpt>
      <trkpt lat="46.06091" lon="5.85694">
        <ele>513</ele>
        <time>2012-07-09T15:01:02Z</time>
      </trkpt>
      <trkpt lat="46.05728" lon="5.8552">
        <ele>523</ele>
        <time>2012-07-09T15:02:57Z</time>
      </trkpt>
      <trkpt lat="46.05497" lon="5.85673">
        <ele>528</ele>
        <time>2012-07-09T15:04:52Z</time>
      </trkpt>
      <trkpt lat="46.04626" lon="5.85224">
        <ele>531</ele>
        <time>2012-07-09T15:09:12Z</time>
      </trkpt>
      <trkpt lat="46.04314" lon="5.84935">
        <ele>542</ele>
        <time>2012-07-09T15:11:16Z</time>
      </trkpt>
      <trkpt lat="46.04206" lon="5.84744">
        <ele>539</ele>
        <time>2012-07-09T15:11:51Z</time>
      </trkpt>
      <trkpt lat="46.03789" lon="5.85016">
        <ele>531</ele>
        <time>2012-07-09T15:15:00Z</time>
      </trkpt>
      <trkpt lat="46.03282" lon="5.85081">
        <ele>514</ele>
        <time>2012-07-09T15:16:25Z</time>
      </trkpt>
      <trkpt lat="46.02424" lon="5.85035">
        <ele>507</ele>
        <time>2012-07-09T15:19:54Z</time>
      </trkpt>
      <trkpt lat="46.02134" lon="5.84731">
        <ele>500</ele>
        <time>2012-07-09T15:21:34Z</time>
      </trkpt>
      <trkpt lat="46.01776" lon="5.84612">
        <ele>476</ele>
        <time>2012-07-09T15:22:35Z</time>
      </trkpt>
      <trkpt lat="46.0167" lon="5.84507">
        <ele>470</ele>
        <time>2012-07-09T15:23:27Z</time>
      </trkpt>
      <trkpt lat="46.01103" lon="5.84368">
        <ele>437</ele>
        <time>2012-07-09T15:24:54Z</time>
      </trkpt>
      <trkpt lat="46.01013" lon="5.84157">
        <ele>421</ele>
        <time>2012-07-09T15:25:21Z</time>
      </trkpt>
      <trkpt lat="46.00911" lon="5.84134">
        <ele>413</ele>
        <time>2012-07-09T15:25:45Z</time>
      </trkpt>
      <trkpt lat="46.00838" lon="5.84228">
        <ele>408</ele>
        <time>2012-07-09T15:26:31Z</time>
      </trkpt>
      <trkpt lat="46.00892" lon="5.84347">
        <ele>402</ele>
        <time>2012-07-09T15:27:01Z</time>
      </trkpt>
      <trkpt lat="46.00898" lon="5.84795">
        <ele>375</ele>
        <time>2012-07-09T15:27:50Z</time>
      </trkpt>
      <trkpt lat="46.00454" lon="5.8449">
        <ele>345</ele>
        <time>2012-07-09T15:28:59Z</time>
      </trkpt>
      <trkpt lat="46.00023" lon="5.84555">
        <ele>322</ele>
        <time>2012-07-09T15:29:52Z</time>
      </trkpt>
      <trkpt lat="45.99878" lon="5.84467">
        <ele>317</ele>
        <time>2012-07-09T15:30:21Z</time>
      </trkpt>
      <trkpt lat="45.9954" lon="5.84608">
        <ele>304</ele>
        <time>2012-07-09T15:31:12Z</time>
      </trkpt>
      <trkpt lat="45.99451" lon="5.84757">
        <ele>295</ele>
        <time>2012-07-09T15:31:28Z</time>
      </trkpt>
      <trkpt lat="45.9915" lon="5.84988">
        <ele>279</ele>
        <time>2012-07-09T15:32:07Z</time>
      </trkpt>
      <trkpt lat="45.99268" lon="5.85313">
        <ele>275</ele>
        <time>2012-07-09T15:32:57Z</time>
      </trkpt>
      <trkpt lat="45.99204" lon="5.85335">
        <ele>277</ele>
        <time>2012-07-09T15:34:05Z</time>
      </trkpt>
      <trkpt lat="45.9879" lon="5.84862">
        <ele>277</ele>
        <time>2012-07-09T15:35:51Z</time>
      </trkpt>
      <trkpt lat="45.98304" lon="5.84715">
        <ele>272</ele>
        <time>2012-07-09T15:37:42Z</time>
      </trkpt>
      <trkpt lat="45.98099" lon="5.84275">
        <ele>272</ele>
        <time>2012-07-09T15:39:02Z</time>
      </trkpt>
      <trkpt lat="45.97831" lon="5.8416">
        <ele>275</ele>
        <time>2012-07-09T15:40:03Z</time>
      </trkpt>
      <trkpt lat="45.97739" lon="5.83947">
        <ele>272</ele>
        <time>2012-07-09T15:40:42Z</time>
      </trkpt>
      <trkpt lat="45.97515" lon="5.83765">
        <ele>270</ele>
        <time>2012-07-09T15:41:44Z</time>
      </trkpt>
      <trkpt lat="45.97315" lon="5.83743">
        <ele>270</ele>
        <time>2012-07-09T15:42:43Z</time>
      </trkpt>
      <trkpt lat="45.97129" lon="5.83563">
        <ele>273</ele>
        <time>2012-07-09T15:44:36Z</time>
      </trkpt>
      <trkpt lat="45.96354" lon="5.83509">
        <ele>263</ele>
        <time>2012-07-09T15:49:10Z</time>
      </trkpt>
      <trkpt lat="45.96001" lon="5.83604">
        <ele>260</ele>
        <time>2012-07-09T15:52:36Z</time>
      </trkpt>
      <trkpt lat="45.95907" lon="5.83505">
        <ele>263</ele>
        <time>2012-07-09T15:54:13Z</time>
      </trkpt>
      <trkpt lat="45.95971" lon="5.83657">
        <ele>263</ele>
        <time>2012-07-09T16:23:08Z</time>
      </trkpt>
      <trkpt lat="45.96371" lon="5.83681">
        <ele>263</ele>
        <time>2012-07-09T16:24:58Z</time>
      </trkpt>
      <trkpt lat="45.96329" lon="5.8356">
        <ele>260</ele>
        <time>2012-07-09T16:28:08Z</time>
      </trkpt>
      <trkpt lat="45.9625" lon="5.83642">
        <ele>260</ele>
        <time>2012-07-09T16:29:29Z</time>
      </trkpt>
      <trkpt lat="45.96289" lon="5.83555">
        <ele>259</ele>
        <time>2012-07-09T17:49:49Z</time>
      </trkpt>
      <trkpt lat="45.96014" lon="5.83608">
        <ele>260</ele>
        <time>2012-07-09T17:55:38Z</time>
      </trkpt>
      <trkpt lat="45.95677" lon="5.83396">
        <ele>254</ele>
        <time>2012-07-09T17:59:12Z</time>
      </trkpt>
      <trkpt lat="45.95067" lon="5.83678">
        <ele>253</ele>
        <time>2012-07-09T18:01:59Z</time>
      </trkpt>
      <trkpt lat="45.94472" lon="5.83727">
        <ele>263</ele>
        <time>2012-07-09T18:04:28Z</time>
      </trkpt>
      <trkpt lat="45.9393" lon="5.83387">
        <ele>252</ele>
        <time>2012-07-09T18:06:47Z</time>
      </trkpt>
      <trkpt lat="45.93659" lon="5.83332">
        <ele>253</ele>
        <time>2012-07-09T18:07:51Z</time>
      </trkpt>
      <trkpt lat="45.93458" lon="5.83516">
        <ele>255</ele>
        <time>2012-07-09T18:08:52Z</time>
      </trkpt>
      <trkpt lat="45.93455" lon="5.83667">
        <ele>256</ele>
        <time>2012-07-09T18:09:28Z</time>
      </trkpt>
      <trkpt lat="45.93367" lon="5.83686">
        <ele>256</ele>
        <time>2012-07-09T18:10:04Z</time>
      </trkpt>
      <trkpt lat="45.93259" lon="5.83923">
        <ele>259</ele>
        <time>2012-07-09T18:11:56Z</time>
      </trkpt>
      <trkpt lat="45.95895" lon="5.83423">
        <ele>259</ele>
        <time>2012-07-10T07:48:38Z</time>
      </trkpt>
      <trkpt lat="45.95906" lon="5.83552">
        <ele>264</ele>
        <time>2012-07-10T07:58:55Z</time>
      </trkpt>
      <trkpt lat="45.95739" lon="5.83412">
        <ele>255</ele>
        <time>2012-07-10T08:00:07Z</time>
      </trkpt>
      <trkpt lat="45.9569" lon="5.83453">
        <ele>255</ele>
        <time>2012-07-10T08:00:31Z</time>
      </trkpt>
      <trkpt lat="45.9568" lon="5.83398">
        <ele>254</ele>
        <time>2012-07-10T08:00:54Z</time>
      </trkpt>
      <trkpt lat="45.95086" lon="5.83671">
        <ele>253</ele>
        <time>2012-07-10T08:04:15Z</time>
      </trkpt>
      <trkpt lat="45.94465" lon="5.83725">
        <ele>263</ele>
        <time>2012-07-10T08:06:50Z</time>
      </trkpt>
      <trkpt lat="45.93993" lon="5.83414">
        <ele>252</ele>
        <time>2012-07-10T08:08:59Z</time>
      </trkpt>
      <trkpt lat="45.93658" lon="5.8333">
        <ele>253</ele>
        <time>2012-07-10T08:10:21Z</time>
      </trkpt>
      <trkpt lat="45.93453" lon="5.83513">
        <ele>255</ele>
        <time>2012-07-10T08:11:20Z</time>
      </trkpt>
      <trkpt lat="45.93451" lon="5.83637">
        <ele>255</ele>
        <time>2012-07-10T08:11:46Z</time>
      </trkpt>
      <trkpt lat="45.93328" lon="5.83674">
        <ele>256</ele>
        <time>2012-07-10T08:14:14Z</time>
      </trkpt>
      <trkpt lat="45.93202" lon="5.83604">
        <ele>282</ele>
        <time>2012-07-10T08:15:03Z</time>
      </trkpt>
      <trkpt lat="45.93213" lon="5.83296">
        <ele>283</ele>
        <time>2012-07-10T08:17:04Z</time>
      </trkpt>
      <trkpt lat="45.93294" lon="5.83132">
        <ele>275</ele>
        <time>2012-07-10T08:18:29Z</time>
      </trkpt>
      <trkpt lat="45.93166" lon="5.8293">
        <ele>292</ele>
        <time>2012-07-10T08:20:16Z</time>
      </trkpt>
      <trkpt lat="45.92866" lon="5.83109">
        <ele>296</ele>
        <time>2012-07-10T08:22:21Z</time>
      </trkpt>
      <trkpt lat="45.92713" lon="5.83412">
        <ele>294</ele>
        <time>2012-07-10T08:23:19Z</time>
      </trkpt>
      <trkpt lat="45.92348" lon="5.83498">
        <ele>288</ele>
        <time>2012-07-10T08:24:28Z</time>
      </trkpt>
      <trkpt lat="45.92254" lon="5.83744">
        <ele>288</ele>
        <time>2012-07-10T08:25:01Z</time>
      </trkpt>
      <trkpt lat="45.91423" lon="5.8395">
        <ele>285</ele>
        <time>2012-07-10T08:28:11Z</time>
      </trkpt>
      <trkpt lat="45.90199" lon="5.84031">
        <ele>250</ele>
        <time>2012-07-10T08:31:23Z</time>
      </trkpt>
      <trkpt lat="45.90184" lon="5.83832">
        <ele>245</ele>
        <time>2012-07-10T08:32:26Z</time>
      </trkpt>
      <trkpt lat="45.89905" lon="5.83957">
        <ele>244</ele>
        <time>2012-07-10T08:33:44Z</time>
      </trkpt>
      <trkpt lat="45.89537" lon="5.83927">
        <ele>244</ele>
        <time>2012-07-10T08:35:14Z</time>
      </trkpt>
      <trkpt lat="45.89318" lon="5.84095">
        <ele>244</ele>
        <time>2012-07-10T08:36:46Z</time>
      </trkpt>
      <trkpt lat="45.88622" lon="5.83074">
        <ele>242</ele>
        <time>2012-07-10T08:41:55Z</time>
      </trkpt>
      <trkpt lat="45.88018" lon="5.82416">
        <ele>243</ele>
        <time>2012-07-10T08:45:37Z</time>
      </trkpt>
      <trkpt lat="45.87732" lon="5.8232">
        <ele>242</ele>
        <time>2012-07-10T08:46:57Z</time>
      </trkpt>
      <trkpt lat="45.8744" lon="5.82366">
        <ele>246</ele>
        <time>2012-07-10T08:48:37Z</time>
      </trkpt>
      <trkpt lat="45.87292" lon="5.82157">
        <ele>245</ele>
        <time>2012-07-10T08:49:34Z</time>
      </trkpt>
      <trkpt lat="45.86879" lon="5.82083">
        <ele>242</ele>
        <time>2012-07-10T08:52:50Z</time>
      </trkpt>
      <trkpt lat="45.86661" lon="5.81895">
        <ele>243</ele>
        <time>2012-07-10T08:54:29Z</time>
      </trkpt>
      <trkpt lat="45.86576" lon="5.81719">
        <ele>243</ele>
        <time>2012-07-10T09:02:55Z</time>
      </trkpt>
      <trkpt lat="45.86249" lon="5.81581">
        <ele>244</ele>
        <time>2012-07-10T09:05:19Z</time>
      </trkpt>
      <trkpt lat="45.85425" lon="5.80795">
        <ele>238</ele>
        <time>2012-07-10T09:12:35Z</time>
      </trkpt>
      <trkpt lat="45.85315" lon="5.80618">
        <ele>238</ele>
        <time>2012-07-10T09:16:25Z</time>
      </trkpt>
      <trkpt lat="45.85338" lon="5.80698">
        <ele>238</ele>
        <time>2012-07-10T09:18:04Z</time>
      </trkpt>
      <trkpt lat="45.84782" lon="5.80729">
        <ele>239</ele>
        <time>2012-07-10T09:22:54Z</time>
      </trkpt>
      <trkpt lat="45.84782" lon="5.80397">
        <ele>237</ele>
        <time>2012-07-10T09:24:15Z</time>
      </trkpt>
      <trkpt lat="45.84404" lon="5.79961">
        <ele>237</ele>
        <time>2012-07-10T09:26:52Z</time>
      </trkpt>
      <trkpt lat="45.84049" lon="5.79781">
        <ele>238</ele>
        <time>2012-07-10T09:28:51Z</time>
      </trkpt>
      <trkpt lat="45.83497" lon="5.80026">
        <ele>241</ele>
        <time>2012-07-10T09:31:58Z</time>
      </trkpt>
      <trkpt lat="45.83441" lon="5.80133">
        <ele>239</ele>
        <time>2012-07-10T09:32:59Z</time>
      </trkpt>
      <trkpt lat="45.83294" lon="5.80194">
        <ele>259</ele>
        <time>2012-07-10T09:34:28Z</time>
      </trkpt>
      <trkpt lat="45.83019" lon="5.79805">
        <ele>236</ele>
        <time>2012-07-10T09:47:18Z</time>
      </trkpt>
      <trkpt lat="45.82825" lon="5.80074">
        <ele>242</ele>
        <time>2012-07-10T09:49:18Z</time>
      </trkpt>
      <trkpt lat="45.82411" lon="5.79859">
        <ele>236</ele>
        <time>2012-07-10T09:51:54Z</time>
      </trkpt>
      <trkpt lat="45.82311" lon="5.79629">
        <ele>236</ele>
        <time>2012-07-10T09:52:51Z</time>
      </trkpt>
      <trkpt lat="45.8194" lon="5.79238">
        <ele>238</ele>
        <time>2012-07-10T09:54:59Z</time>
      </trkpt>
      <trkpt lat="45.81497" lon="5.79418">
        <ele>234</ele>
        <time>2012-07-10T09:57:03Z</time>
      </trkpt>
      <trkpt lat="45.81214" lon="5.79124">
        <ele>233</ele>
        <time>2012-07-10T09:59:08Z</time>
      </trkpt>
      <trkpt lat="45.8106" lon="5.79143">
        <ele>237</ele>
        <time>2012-07-10T10:07:02Z</time>
      </trkpt>
      <trkpt lat="45.80925" lon="5.79041">
        <ele>237</ele>
        <time>2012-07-10T10:07:59Z</time>
      </trkpt>
      <trkpt lat="45.80951" lon="5.79285">
        <ele>236</ele>
        <time>2012-07-10T10:10:30Z</time>
      </trkpt>
      <trkpt lat="45.80909" lon="5.79102">
        <ele>237</ele>
        <time>2012-07-10T10:11:45Z</time>
      </trkpt>
      <trkpt lat="45.80971" lon="5.78906">
        <ele>237</ele>
        <time>2012-07-10T10:12:48Z</time>
      </trkpt>
      <trkpt lat="45.8091" lon="5.79093">
        <ele>236</ele>
        <time>2012-07-10T10:53:55Z</time>
      </trkpt>
      <trkpt lat="45.8094" lon="5.79255">
        <ele>236</ele>
        <time>2012-07-10T10:54:35Z</time>
      </trkpt>
      <trkpt lat="45.81072" lon="5.79445">
        <ele>238</ele>
        <time>2012-07-10T10:55:24Z</time>
      </trkpt>
      <trkpt lat="45.81291" lon="5.79512">
        <ele>233</ele>
        <time>2012-07-10T10:56:23Z</time>
      </trkpt>
      <trkpt lat="45.81036" lon="5.79505">
        <ele>247</ele>
        <time>2012-07-10T10:58:18Z</time>
      </trkpt>
      <trkpt lat="45.809" lon="5.79389">
        <ele>248</ele>
        <time>2012-07-10T10:59:01Z</time>
      </trkpt>
      <trkpt lat="45.80845" lon="5.79111">
        <ele>240</ele>
        <time>2012-07-10T11:00:02Z</time>
      </trkpt>
      <trkpt lat="45.80908" lon="5.78875">
        <ele>244</ele>
        <time>2012-07-10T11:04:05Z</time>
      </trkpt>
      <trkpt lat="45.80716" lon="5.79126">
        <ele>275</ele>
        <time>2012-07-10T11:11:14Z</time>
      </trkpt>
      <trkpt lat="45.80908" lon="5.78869">
        <ele>244</ele>
        <time>2012-07-10T11:14:43Z</time>
      </trkpt>
      <trkpt lat="45.80846" lon="5.79102">
        <ele>240</ele>
        <time>2012-07-10T11:16:09Z</time>
      </trkpt>
      <trkpt lat="45.80879" lon="5.79068">
        <ele>240</ele>
        <time>2012-07-10T11:20:25Z</time>
      </trkpt>
      <trkpt lat="45.80898" lon="5.79385">
        <ele>248</ele>
        <time>2012-07-10T11:52:00Z</time>
      </trkpt>
      <trkpt lat="45.81029" lon="5.79505">
        <ele>247</ele>
        <time>2012-07-10T11:52:59Z</time>
      </trkpt>
      <trkpt lat="45.81296" lon="5.79513">
        <ele>233</ele>
        <time>2012-07-10T11:53:56Z</time>
      </trkpt>
      <trkpt lat="45.81092" lon="5.79453">
        <ele>237</ele>
        <time>2012-07-10T11:54:54Z</time>
      </trkpt>
      <trkpt lat="45.80924" lon="5.79241">
        <ele>236</ele>
        <time>2012-07-10T11:55:52Z</time>
      </trkpt>
      <trkpt lat="45.80982" lon="5.78773">
        <ele>234</ele>
        <time>2012-07-10T12:00:24Z</time>
      </trkpt>
      <trkpt lat="45.81278" lon="5.78772">
        <ele>234</ele>
        <time>2012-07-10T12:02:19Z</time>
      </trkpt>
      <trkpt lat="45.80869" lon="5.78379">
        <ele>234</ele>
        <time>2012-07-10T12:05:04Z</time>
      </trkpt>
      <trkpt lat="45.80877" lon="5.78174">
        <ele>232</ele>
        <time>2012-07-10T12:06:00Z</time>
      </trkpt>
      <trkpt lat="45.80812" lon="5.78064">
        <ele>232</ele>
        <time>2012-07-10T12:06:30Z</time>
      </trkpt>
      <trkpt lat="45.80576" lon="5.77944">
        <ele>230</ele>
        <time>2012-07-10T12:07:20Z</time>
      </trkpt>
      <trkpt lat="45.78608" lon="5.77503">
        <ele>231</ele>
        <time>2012-07-10T12:15:41Z</time>
      </trkpt>
      <trkpt lat="45.77829" lon="5.77071">
        <ele>233</ele>
        <time>2012-07-10T12:19:26Z</time>
      </trkpt>
      <trkpt lat="45.77231" lon="5.77216">
        <ele>230</ele>
        <time>2012-07-10T12:22:03Z</time>
      </trkpt>
      <trkpt lat="45.77135" lon="5.77078">
        <ele>232</ele>
        <time>2012-07-10T12:23:01Z</time>
      </trkpt>
      <trkpt lat="45.76797" lon="5.76976">
        <ele>241</ele>
        <time>2012-07-10T12:25:20Z</time>
      </trkpt>
      <trkpt lat="45.76593" lon="5.76419">
        <ele>241</ele>
        <time>2012-07-10T12:27:34Z</time>
      </trkpt>
      <trkpt lat="45.76561" lon="5.76124">
        <ele>244</ele>
        <time>2012-07-10T12:28:31Z</time>
      </trkpt>
      <trkpt lat="45.76688" lon="5.75788">
        <ele>242</ele>
        <time>2012-07-10T12:29:49Z</time>
      </trkpt>
      <trkpt lat="45.76501" lon="5.75659">
        <ele>254</ele>
        <time>2012-07-10T12:31:51Z</time>
      </trkpt>
      <trkpt lat="45.76572" lon="5.7541">
        <ele>247</ele>
        <time>2012-07-10T12:32:38Z</time>
      </trkpt>
      <trkpt lat="45.76654" lon="5.75439">
        <ele>242</ele>
        <time>2012-07-10T12:32:57Z</time>
      </trkpt>
      <trkpt lat="45.76551" lon="5.75476">
        <ele>235</ele>
        <time>2012-07-10T12:33:18Z</time>
      </trkpt>
      <trkpt lat="45.76404" lon="5.74977">
        <ele>247</ele>
        <time>2012-07-10T12:36:36Z</time>
      </trkpt>
      <trkpt lat="45.76421" lon="5.74793">
        <ele>249</ele>
        <time>2012-07-10T12:37:49Z</time>
      </trkpt>
      <trkpt lat="45.76088" lon="5.74308">
        <ele>242</ele>
        <time>2012-07-10T12:39:28Z</time>
      </trkpt>
      <trkpt lat="45.75963" lon="5.73727">
        <ele>243</ele>
        <time>2012-07-10T12:40:57Z</time>
      </trkpt>
      <trkpt lat="45.76205" lon="5.72689">
        <ele>237</ele>
        <time>2012-07-10T12:43:37Z</time>
      </trkpt>
      <trkpt lat="45.76223" lon="5.72147">
        <ele>235</ele>
        <time>2012-07-10T12:45:42Z</time>
      </trkpt>
      <trkpt lat="45.76005" lon="5.71619">
        <ele>235</ele>
        <time>2012-07-10T12:47:14Z</time>
      </trkpt>
      <trkpt lat="45.75904" lon="5.71559">
        <ele>231</ele>
        <time>2012-07-10T12:47:41Z</time>
      </trkpt>
      <trkpt lat="45.75489" lon="5.70774">
        <ele>233</ele>
        <time>2012-07-10T12:50:26Z</time>
      </trkpt>
      <trkpt lat="45.75514" lon="5.70694">
        <ele>232</ele>
        <time>2012-07-10T13:03:16Z</time>
      </trkpt>
      <trkpt lat="45.75232" lon="5.70387">
        <ele>232</ele>
        <time>2012-07-10T13:04:33Z</time>
      </trkpt>
      <trkpt lat="45.74962" lon="5.70333">
        <ele>230</ele>
        <time>2012-07-10T13:05:25Z</time>
      </trkpt>
      <trkpt lat="45.74783" lon="5.70164">
        <ele>232</ele>
        <time>2012-07-10T13:06:30Z</time>
      </trkpt>
      <trkpt lat="45.74577" lon="5.70287">
        <ele>229</ele>
        <time>2012-07-10T13:07:15Z</time>
      </trkpt>
      <trkpt lat="45.74222" lon="5.70242">
        <ele>227</ele>
        <time>2012-07-10T13:08:54Z</time>
      </trkpt>
      <trkpt lat="45.73932" lon="5.70412">
        <ele>229</ele>
        <time>2012-07-10T13:10:04Z</time>
      </trkpt>
      <trkpt lat="45.73763" lon="5.70412">
        <ele>234</ele>
        <time>2012-07-10T13:11:45Z</time>
      </trkpt>
      <trkpt lat="45.73824" lon="5.70337">
        <ele>238</ele>
        <time>2012-07-10T13:12:22Z</time>
      </trkpt>
      <trkpt lat="45.73682" lon="5.70671">
        <ele>246</ele>
        <time>2012-07-10T13:14:40Z</time>
      </trkpt>
      <trkpt lat="45.73548" lon="5.70475">
        <ele>243</ele>
        <time>2012-07-10T13:15:33Z</time>
      </trkpt>
      <trkpt lat="45.73332" lon="5.70425">
        <ele>244</ele>
        <time>2012-07-10T13:16:05Z</time>
      </trkpt>
      <trkpt lat="45.73147" lon="5.70518">
        <ele>237</ele>
        <time>2012-07-10T13:17:15Z</time>
      </trkpt>
      <trkpt lat="45.73006" lon="5.70379">
        <ele>229</ele>
        <time>2012-07-10T13:17:44Z</time>
      </trkpt>
      <trkpt lat="45.72636" lon="5.70329">
        <ele>225</ele>
        <time>2012-07-10T13:18:53Z</time>
      </trkpt>
      <trkpt lat="45.72614" lon="5.70393">
        <ele>227</ele>
        <time>2012-07-10T13:19:07Z</time>
      </trkpt>
      <trkpt lat="45.72112" lon="5.70446">
        <ele>226</ele>
        <time>2012-07-10T13:21:41Z</time>
      </trkpt>
      <trkpt lat="45.72102" lon="5.70355">
        <ele>225</ele>
        <time>2012-07-10T13:21:54Z</time>
      </trkpt>
      <trkpt lat="45.72053" lon="5.70354">
        <ele>224</ele>
        <time>2012-07-10T13:22:05Z</time>
      </trkpt>
      <trkpt lat="45.72048" lon="5.70117">
        <ele>223</ele>
        <time>2012-07-10T13:22:38Z</time>
      </trkpt>
      <trkpt lat="45.71104" lon="5.70105">
        <ele>219</ele>
        <time>2012-07-10T13:25:49Z</time>
      </trkpt>
      <trkpt lat="45.71159" lon="5.70494">
        <ele>222</ele>
        <time>2012-07-10T13:30:21Z</time>
      </trkpt>
      <trkpt lat="45.71112" lon="5.70107">
        <ele>219</ele>
        <time>2012-07-10T13:32:19Z</time>
      </trkpt>
      <trkpt lat="45.7146" lon="5.70091">
        <ele>222</ele>
        <time>2012-07-10T13:33:59Z</time>
      </trkpt>
      <trkpt lat="45.715" lon="5.70622">
        <ele>224</ele>
        <time>2012-07-10T13:35:53Z</time>
      </trkpt>
      <trkpt lat="45.71593" lon="5.70892">
        <ele>225</ele>
        <time>2012-07-10T13:36:47Z</time>
      </trkpt>
      <trkpt lat="45.71588" lon="5.71083">
        <ele>226</ele>
        <time>2012-07-10T13:37:22Z</time>
      </trkpt>
      <trkpt lat="45.7148" lon="5.71354">
        <ele>233</ele>
        <time>2012-07-10T13:39:20Z</time>
      </trkpt>
      <trkpt lat="45.71132" lon="5.715">
        <ele>243</ele>
        <time>2012-07-10T13:42:34Z</time>
      </trkpt>
      <trkpt lat="45.71042" lon="5.71898">
        <ele>242</ele>
        <time>2012-07-10T13:43:26Z</time>
      </trkpt>
      <trkpt lat="45.70864" lon="5.72086">
        <ele>255</ele>
        <time>2012-07-10T13:44:01Z</time>
      </trkpt>
      <trkpt lat="45.70918" lon="5.72632">
        <ele>257</ele>
        <time>2012-07-10T13:45:58Z</time>
      </trkpt>
      <trkpt lat="45.7085" lon="5.72712">
        <ele>251</ele>
        <time>2012-07-10T13:46:18Z</time>
      </trkpt>
      <trkpt lat="45.70822" lon="5.72401">
        <ele>279</ele>
        <time>2012-07-10T13:48:35Z</time>
      </trkpt>
      <trkpt lat="45.70698" lon="5.71983">
        <ele>236</ele>
        <time>2012-07-10T13:49:40Z</time>
      </trkpt>
      <trkpt lat="45.70751" lon="5.71597">
        <ele>224</ele>
        <time>2012-07-10T13:51:11Z</time>
      </trkpt>
      <trkpt lat="45.70989" lon="5.70744">
        <ele>221</ele>
        <time>2012-07-10T14:01:36Z</time>
      </trkpt>
      <trkpt lat="45.70924" lon="5.70254">
        <ele>225</ele>
        <time>2012-07-10T14:03:09Z</time>
      </trkpt>
      <trkpt lat="45.70813" lon="5.70269">
        <ele>224</ele>
        <time>2012-07-10T14:04:25Z</time>
      </trkpt>
      <trkpt lat="45.70831" lon="5.70042">
        <ele>222</ele>
        <time>2012-07-10T14:05:14Z</time>
      </trkpt>
      <trkpt lat="45.70298" lon="5.70134">
        <ele>220</ele>
        <time>2012-07-10T14:07:26Z</time>
      </trkpt>
      <trkpt lat="45.69969" lon="5.70363">
        <ele>218</ele>
        <time>2012-07-10T14:08:49Z</time>
      </trkpt>
      <trkpt lat="45.6978" lon="5.70821">
        <ele>221</ele>
        <time>2012-07-10T14:10:25Z</time>
      </trkpt>
      <trkpt lat="45.69541" lon="5.71004">
        <ele>220</ele>
        <time>2012-07-10T14:11:36Z</time>
      </trkpt>
      <trkpt lat="45.69349" lon="5.7094">
        <ele>221</ele>
        <time>2012-07-10T14:12:25Z</time>
      </trkpt>
      <trkpt lat="45.69143" lon="5.71089">
        <ele>222</ele>
        <time>2012-07-10T14:13:21Z</time>
      </trkpt>
      <trkpt lat="45.69114" lon="5.71267">
        <ele>232</ele>
        <time>2012-07-10T14:14:04Z</time>
      </trkpt>
      <trkpt lat="45.67867" lon="5.70664">
        <ele>219</ele>
        <time>2012-07-10T14:19:22Z</time>
      </trkpt>
      <trkpt lat="45.67407" lon="5.69983">
        <ele>215</ele>
        <time>2012-07-10T14:21:45Z</time>
      </trkpt>
      <trkpt lat="45.67361" lon="5.70014">
        <ele>217</ele>
        <time>2012-07-10T14:21:57Z</time>
      </trkpt>
      <trkpt lat="45.66929" lon="5.69434">
        <ele>216</ele>
        <time>2012-07-10T14:24:02Z</time>
      </trkpt>
      <trkpt lat="45.66695" lon="5.68952">
        <ele>214</ele>
        <time>2012-07-10T14:25:32Z</time>
      </trkpt>
      <trkpt lat="45.66432" lon="5.68698">
        <ele>214</ele>
        <time>2012-07-10T14:26:44Z</time>
      </trkpt>
      <trkpt lat="45.66187" lon="5.68915">
        <ele>215</ele>
        <time>2012-07-10T14:27:47Z</time>
      </trkpt>
      <trkpt lat="45.66133" lon="5.68635">
        <ele>216</ele>
        <time>2012-07-10T14:28:50Z</time>
      </trkpt>
      <trkpt lat="45.65193" lon="5.69011">
        <ele>214</ele>
        <time>2012-07-10T14:32:43Z</time>
      </trkpt>
      <trkpt lat="45.6513" lon="5.691">
        <ele>215</ele>
        <time>2012-07-10T14:33:04Z</time>
      </trkpt>
      <trkpt lat="45.649" lon="5.69159">
        <ele>215</ele>
        <time>2012-07-10T14:33:54Z</time>
      </trkpt>
      <trkpt lat="45.64693" lon="5.69312">
        <ele>215</ele>
        <time>2012-07-10T14:34:46Z</time>
      </trkpt>
      <trkpt lat="45.64486" lon="5.69324">
        <ele>216</ele>
        <time>2012-07-10T14:35:37Z</time>
      </trkpt>
      <trkpt lat="45.63895" lon="5.68699">
        <ele>217</ele>
        <time>2012-07-10T14:38:29Z</time>
      </trkpt>
      <trkpt lat="45.63842" lon="5.68174">
        <ele>216</ele>
        <time>2012-07-10T14:40:12Z</time>
      </trkpt>
      <trkpt lat="45.63704" lon="5.67663">
        <ele>214</ele>
        <time>2012-07-10T14:41:56Z</time>
      </trkpt>
      <trkpt lat="45.6366" lon="5.67658">
        <ele>214</ele>
        <time>2012-07-10T14:50:37Z</time>
      </trkpt>
      <trkpt lat="45.63663" lon="5.65879">
        <ele>212</ele>
        <time>2012-07-10T14:56:15Z</time>
      </trkpt>
      <trkpt lat="45.63463" lon="5.65625">
        <ele>213</ele>
        <time>2012-07-10T14:57:28Z</time>
      </trkpt>
      <trkpt lat="45.63044" lon="5.65341">
        <ele>216</ele>
        <time>2012-07-10T15:00:05Z</time>
      </trkpt>
      <trkpt lat="45.6294" lon="5.65354">
        <ele>215</ele>
        <time>2012-07-10T15:00:34Z</time>
      </trkpt>
      <trkpt lat="45.62566" lon="5.6515">
        <ele>215</ele>
        <time>2012-07-10T15:02:13Z</time>
      </trkpt>
      <trkpt lat="45.6241" lon="5.6495">
        <ele>213</ele>
        <time>2012-07-10T15:03:03Z</time>
      </trkpt>
      <trkpt lat="45.62228" lon="5.64336">
        <ele>214</ele>
        <time>2012-07-10T15:04:50Z</time>
      </trkpt>
      <trkpt lat="45.62068" lon="5.64181">
        <ele>215</ele>
        <time>2012-07-10T15:05:41Z</time>
      </trkpt>
      <trkpt lat="45.61568" lon="5.63955">
        <ele>212</ele>
        <time>2012-07-10T15:07:42Z</time>
      </trkpt>
      <trkpt lat="45.61497" lon="5.63725">
        <ele>211</ele>
        <time>2012-07-10T15:08:23Z</time>
      </trkpt>
      <trkpt lat="45.61227" lon="5.6361">
        <ele>212</ele>
        <time>2012-07-10T15:09:32Z</time>
      </trkpt>
      <trkpt lat="45.61094" lon="5.63462">
        <ele>212</ele>
        <time>2012-07-10T15:12:45Z</time>
      </trkpt>
      <trkpt lat="45.61024" lon="5.62865">
        <ele>211</ele>
        <time>2012-07-10T15:14:35Z</time>
      </trkpt>
      <trkpt lat="45.60856" lon="5.62756">
        <ele>212</ele>
        <time>2012-07-10T15:15:23Z</time>
      </trkpt>
      <trkpt lat="45.60807" lon="5.62822">
        <ele>212</ele>
        <time>2012-07-10T15:15:42Z</time>
      </trkpt>
      <trkpt lat="45.60517" lon="5.62765">
        <ele>213</ele>
        <time>2012-07-10T15:17:00Z</time>
      </trkpt>
      <trkpt lat="45.60228" lon="5.62829">
        <ele>216</ele>
        <time>2012-07-10T15:18:31Z</time>
      </trkpt>
      <trkpt lat="45.60211" lon="5.62907">
        <ele>216</ele>
        <time>2012-07-10T15:18:49Z</time>
      </trkpt>
      <trkpt lat="45.6002" lon="5.63039">
        <ele>220</ele>
        <time>2012-07-10T15:21:14Z</time>
      </trkpt>
      <trkpt lat="45.59977" lon="5.62996">
        <ele>218</ele>
        <time>2012-07-10T15:21:27Z</time>
      </trkpt>
      <trkpt lat="45.59593" lon="5.6347">
        <ele>224</ele>
        <time>2012-07-10T15:24:35Z</time>
      </trkpt>
      <trkpt lat="45.5955" lon="5.63445">
        <ele>222</ele>
        <time>2012-07-10T15:28:05Z</time>
      </trkpt>
      <trkpt lat="45.59503" lon="5.63541">
        <ele>223</ele>
        <time>2012-07-10T15:55:45Z</time>
      </trkpt>
      <trkpt lat="45.59741" lon="5.63263">
        <ele>220</ele>
        <time>2012-07-11T07:25:52Z</time>
      </trkpt>
      <trkpt lat="45.59878" lon="5.63258">
        <ele>231</ele>
        <time>2012-07-11T07:27:39Z</time>
      </trkpt>
      <trkpt lat="45.59962" lon="5.63148">
        <ele>228</ele>
        <time>2012-07-11T07:29:12Z</time>
      </trkpt>
      <trkpt lat="45.59918" lon="5.63194">
        <ele>231</ele>
        <time>2012-07-11T07:44:48Z</time>
      </trkpt>
      <trkpt lat="45.60037" lon="5.63198">
        <ele>230</ele>
        <time>2012-07-11T07:46:18Z</time>
      </trkpt>
      <trkpt lat="45.59958" lon="5.63299">
        <ele>234</ele>
        <time>2012-07-11T07:58:51Z</time>
      </trkpt>
      <trkpt lat="45.60008" lon="5.63323">
        <ele>233</ele>
        <time>2012-07-11T07:59:32Z</time>
      </trkpt>
      <trkpt lat="45.60027" lon="5.63237">
        <ele>231</ele>
        <time>2012-07-11T08:00:13Z</time>
      </trkpt>
      <trkpt lat="45.59859" lon="5.63237">
        <ele>228</ele>
        <time>2012-07-11T08:03:22Z</time>
      </trkpt>
      <trkpt lat="45.59763" lon="5.63018">
        <ele>217</ele>
        <time>2012-07-11T08:19:35Z</time>
      </trkpt>
      <trkpt lat="45.59988" lon="5.62422">
        <ele>217</ele>
        <time>2012-07-11T08:22:18Z</time>
      </trkpt>
      <trkpt lat="45.60344" lon="5.6208">
        <ele>214</ele>
        <time>2012-07-11T08:24:04Z</time>
      </trkpt>
      <trkpt lat="45.60821" lon="5.62008">
        <ele>212</ele>
        <time>2012-07-11T08:25:54Z</time>
      </trkpt>
      <trkpt lat="45.61063" lon="5.61809">
        <ele>212</ele>
        <time>2012-07-11T08:26:54Z</time>
      </trkpt>
      <trkpt lat="45.61226" lon="5.61535">
        <ele>212</ele>
        <time>2012-07-11T08:27:52Z</time>
      </trkpt>
      <trkpt lat="45.61502" lon="5.61262">
        <ele>213</ele>
        <time>2012-07-11T08:29:07Z</time>
      </trkpt>
      <trkpt lat="45.61822" lon="5.61076">
        <ele>210</ele>
        <time>2012-07-11T08:31:54Z</time>
      </trkpt>
      <trkpt lat="45.62391" lon="5.61404">
        <ele>212</ele>
        <time>2012-07-11T08:35:16Z</time>
      </trkpt>
      <trkpt lat="45.62744" lon="5.62402">
        <ele>219</ele>
        <time>2012-07-11T08:38:41Z</time>
      </trkpt>
      <trkpt lat="45.63201" lon="5.62123">
        <ele>227</ele>
        <time>2012-07-11T08:41:11Z</time>
      </trkpt>
      <trkpt lat="45.63444" lon="5.62121">
        <ele>225</ele>
        <time>2012-07-11T08:42:34Z</time>
      </trkpt>
      <trkpt lat="45.63632" lon="5.62232">
        <ele>226</ele>
        <time>2012-07-11T08:43:29Z</time>
      </trkpt>
      <trkpt lat="45.63777" lon="5.62156">
        <ele>219</ele>
        <time>2012-07-11T08:44:13Z</time>
      </trkpt>
      <trkpt lat="45.63791" lon="5.6176">
        <ele>220</ele>
        <time>2012-07-11T08:45:23Z</time>
      </trkpt>
      <trkpt lat="45.63911" lon="5.61413">
        <ele>209</ele>
        <time>2012-07-11T08:46:37Z</time>
      </trkpt>
      <trkpt lat="45.64139" lon="5.61134">
        <ele>209</ele>
        <time>2012-07-11T08:47:52Z</time>
      </trkpt>
      <trkpt lat="45.6503" lon="5.60572">
        <ele>211</ele>
        <time>2012-07-11T08:51:48Z</time>
      </trkpt>
      <trkpt lat="45.65361" lon="5.60271">
        <ele>210</ele>
        <time>2012-07-11T08:53:17Z</time>
      </trkpt>
      <trkpt lat="45.6546" lon="5.60574">
        <ele>211</ele>
        <time>2012-07-11T08:55:49Z</time>
      </trkpt>
      <trkpt lat="45.65607" lon="5.60481">
        <ele>208</ele>
        <time>2012-07-11T08:56:35Z</time>
      </trkpt>
      <trkpt lat="45.65924" lon="5.60006">
        <ele>208</ele>
        <time>2012-07-11T08:58:23Z</time>
      </trkpt>
      <trkpt lat="45.661" lon="5.59352">
        <ele>208</ele>
        <time>2012-07-11T09:00:24Z</time>
      </trkpt>
      <trkpt lat="45.66199" lon="5.59182">
        <ele>206</ele>
        <time>2012-07-11T09:01:02Z</time>
      </trkpt>
      <trkpt lat="45.66656" lon="5.58795">
        <ele>206</ele>
        <time>2012-07-11T09:03:11Z</time>
      </trkpt>
      <trkpt lat="45.66905" lon="5.58251">
        <ele>209</ele>
        <time>2012-07-11T09:05:13Z</time>
      </trkpt>
      <trkpt lat="45.67103" lon="5.57472">
        <ele>209</ele>
        <time>2012-07-11T09:07:38Z</time>
      </trkpt>
      <trkpt lat="45.67331" lon="5.57611">
        <ele>222</ele>
        <time>2012-07-11T09:11:46Z</time>
      </trkpt>
      <trkpt lat="45.67379" lon="5.57325">
        <ele>224</ele>
        <time>2012-07-11T09:13:14Z</time>
      </trkpt>
      <trkpt lat="45.677" lon="5.56946">
        <ele>213</ele>
        <time>2012-07-11T09:14:36Z</time>
      </trkpt>
      <trkpt lat="45.67873" lon="5.5702">
        <ele>217</ele>
        <time>2012-07-11T09:15:13Z</time>
      </trkpt>
      <trkpt lat="45.68109" lon="5.56936">
        <ele>211</ele>
        <time>2012-07-11T09:16:07Z</time>
      </trkpt>
      <trkpt lat="45.68347" lon="5.56713">
        <ele>208</ele>
        <time>2012-07-11T09:17:16Z</time>
      </trkpt>
      <trkpt lat="45.68424" lon="5.56317">
        <ele>207</ele>
        <time>2012-07-11T09:18:44Z</time>
      </trkpt>
      <trkpt lat="45.68708" lon="5.55994">
        <ele>204</ele>
        <time>2012-07-11T09:20:31Z</time>
      </trkpt>
      <trkpt lat="45.68999" lon="5.55864">
        <ele>205</ele>
        <time>2012-07-11T09:21:53Z</time>
      </trkpt>
      <trkpt lat="45.69315" lon="5.55852">
        <ele>205</ele>
        <time>2012-07-11T09:23:11Z</time>
      </trkpt>
      <trkpt lat="45.69534" lon="5.55649">
        <ele>206</ele>
        <time>2012-07-11T09:24:16Z</time>
      </trkpt>
      <trkpt lat="45.69708" lon="5.55621">
        <ele>206</ele>
        <time>2012-07-11T09:25:03Z</time>
      </trkpt>
      <trkpt lat="45.6983" lon="5.55343">
        <ele>205</ele>
        <time>2012-07-11T09:26:07Z</time>
      </trkpt>
      <trkpt lat="45.70519" lon="5.55591">
        <ele>204</ele>
        <time>2012-07-11T09:29:04Z</time>
      </trkpt>
      <trkpt lat="45.70805" lon="5.55538">
        <ele>204</ele>
        <time>2012-07-11T09:30:11Z</time>
      </trkpt>
      <trkpt lat="45.71127" lon="5.55255">
        <ele>206</ele>
        <time>2012-07-11T09:41:03Z</time>
      </trkpt>
      <trkpt lat="45.71244" lon="5.55054">
        <ele>207</ele>
        <time>2012-07-11T09:43:10Z</time>
      </trkpt>
      <trkpt lat="45.71024" lon="5.5531">
        <ele>205</ele>
        <time>2012-07-11T09:45:00Z</time>
      </trkpt>
      <trkpt lat="45.71117" lon="5.56398">
        <ele>227</ele>
        <time>2012-07-11T09:51:40Z</time>
      </trkpt>
      <trkpt lat="45.71294" lon="5.56665">
        <ele>234</ele>
        <time>2012-07-11T09:54:00Z</time>
      </trkpt>
      <trkpt lat="45.71388" lon="5.56996">
        <ele>246</ele>
        <time>2012-07-11T10:05:20Z</time>
      </trkpt>
      <trkpt lat="45.71306" lon="5.56672">
        <ele>233</ele>
        <time>2012-07-11T10:06:57Z</time>
      </trkpt>
      <trkpt lat="45.71123" lon="5.56389">
        <ele>228</ele>
        <time>2012-07-11T10:07:40Z</time>
      </trkpt>
      <trkpt lat="45.71045" lon="5.55489">
        <ele>211</ele>
        <time>2012-07-11T10:10:11Z</time>
      </trkpt>
      <trkpt lat="45.71227" lon="5.55253">
        <ele>209</ele>
        <time>2012-07-11T10:11:34Z</time>
      </trkpt>
      <trkpt lat="45.71164" lon="5.55341">
        <ele>210</ele>
        <time>2012-07-11T10:12:05Z</time>
      </trkpt>
      <trkpt lat="45.71135" lon="5.55265">
        <ele>207</ele>
        <time>2012-07-11T10:12:21Z</time>
      </trkpt>
      <trkpt lat="45.71046" lon="5.55332">
        <ele>205</ele>
        <time>2012-07-11T10:58:12Z</time>
      </trkpt>
      <trkpt lat="45.71367" lon="5.54789">
        <ele>208</ele>
        <time>2012-07-11T11:36:47Z</time>
      </trkpt>
      <trkpt lat="45.71415" lon="5.54794">
        <ele>209</ele>
        <time>2012-07-11T11:37:10Z</time>
      </trkpt>
      <trkpt lat="45.71324" lon="5.54915">
        <ele>209</ele>
        <time>2012-07-11T11:38:22Z</time>
      </trkpt>
      <trkpt lat="45.71051" lon="5.54702">
        <ele>205</ele>
        <time>2012-07-11T11:40:21Z</time>
      </trkpt>
      <trkpt lat="45.70831" lon="5.54039">
        <ele>206</ele>
        <time>2012-07-11T11:44:03Z</time>
      </trkpt>
      <trkpt lat="45.70965" lon="5.53799">
        <ele>207</ele>
        <time>2012-07-11T11:45:03Z</time>
      </trkpt>
      <trkpt lat="45.7097" lon="5.53542">
        <ele>207</ele>
        <time>2012-07-11T11:45:56Z</time>
      </trkpt>
      <trkpt lat="45.7119" lon="5.52865">
        <ele>204</ele>
        <time>2012-07-11T11:48:34Z</time>
      </trkpt>
      <trkpt lat="45.71057" lon="5.5275">
        <ele>206</ele>
        <time>2012-07-11T11:49:17Z</time>
      </trkpt>
      <trkpt lat="45.71067" lon="5.52577">
        <ele>212</ele>
        <time>2012-07-11T11:50:02Z</time>
      </trkpt>
      <trkpt lat="45.71008" lon="5.52459">
        <ele>214</ele>
        <time>2012-07-11T11:50:49Z</time>
      </trkpt>
      <trkpt lat="45.71115" lon="5.51891">
        <ele>221</ele>
        <time>2012-07-11T11:53:16Z</time>
      </trkpt>
      <trkpt lat="45.7101" lon="5.51766">
        <ele>226</ele>
        <time>2012-07-11T11:54:12Z</time>
      </trkpt>
      <trkpt lat="45.71109" lon="5.51691">
        <ele>231</ele>
        <time>2012-07-11T11:55:31Z</time>
      </trkpt>
      <trkpt lat="45.71112" lon="5.51402">
        <ele>240</ele>
        <time>2012-07-11T11:57:17Z</time>
      </trkpt>
      <trkpt lat="45.71316" lon="5.50443">
        <ele>242</ele>
        <time>2012-07-11T12:01:04Z</time>
      </trkpt>
      <trkpt lat="45.71663" lon="5.49797">
        <ele>245</ele>
        <time>2012-07-11T12:05:21Z</time>
      </trkpt>
      <trkpt lat="45.71798" lon="5.49697">
        <ele>245</ele>
        <time>2012-07-11T12:06:19Z</time>
      </trkpt>
      <trkpt lat="45.72196" lon="5.4902">
        <ele>256</ele>
        <time>2012-07-11T12:10:17Z</time>
      </trkpt>
      <trkpt lat="45.72597" lon="5.4873">
        <ele>258</ele>
        <time>2012-07-11T12:12:56Z</time>
      </trkpt>
      <trkpt lat="45.72738" lon="5.4874">
        <ele>258</ele>
        <time>2012-07-11T12:13:37Z</time>
      </trkpt>
      <trkpt lat="45.72825" lon="5.48845">
        <ele>259</ele>
        <time>2012-07-11T12:14:10Z</time>
      </trkpt>
      <trkpt lat="45.72995" lon="5.48522">
        <ele>272</ele>
        <time>2012-07-11T13:03:01Z</time>
      </trkpt>
      <trkpt lat="45.72958" lon="5.48411">
        <ele>272</ele>
        <time>2012-07-11T13:03:29Z</time>
      </trkpt>
      <trkpt lat="45.72982" lon="5.47743">
        <ele>288</ele>
        <time>2012-07-11T13:11:52Z</time>
      </trkpt>
      <trkpt lat="45.73055" lon="5.47642">
        <ele>288</ele>
        <time>2012-07-11T13:14:22Z</time>
      </trkpt>
      <trkpt lat="45.73172" lon="5.47699">
        <ele>294</ele>
        <time>2012-07-11T13:15:17Z</time>
      </trkpt>
      <trkpt lat="45.73269" lon="5.47306">
        <ele>291</ele>
        <time>2012-07-11T13:21:04Z</time>
      </trkpt>
      <trkpt lat="45.73384" lon="5.47156">
        <ele>286</ele>
        <time>2012-07-11T13:21:45Z</time>
      </trkpt>
      <trkpt lat="45.73531" lon="5.47115">
        <ele>281</ele>
        <time>2012-07-11T13:22:58Z</time>
      </trkpt>
      <trkpt lat="45.7371" lon="5.46549">
        <ele>262</ele>
        <time>2012-07-11T13:24:13Z</time>
      </trkpt>
      <trkpt lat="45.73865" lon="5.4671">
        <ele>280</ele>
        <time>2012-07-11T13:31:20Z</time>
      </trkpt>
      <trkpt lat="45.73852" lon="5.46634">
        <ele>274</ele>
        <time>2012-07-11T13:31:36Z</time>
      </trkpt>
      <trkpt lat="45.73726" lon="5.46589">
        <ele>265</ele>
        <time>2012-07-11T13:31:54Z</time>
      </trkpt>
      <trkpt lat="45.73576" lon="5.46168">
        <ele>239</ele>
        <time>2012-07-11T13:32:35Z</time>
      </trkpt>
      <trkpt lat="45.73652" lon="5.46019">
        <ele>228</ele>
        <time>2012-07-11T13:34:51Z</time>
      </trkpt>
      <trkpt lat="45.73827" lon="5.46019">
        <ele>227</ele>
        <time>2012-07-11T13:35:42Z</time>
      </trkpt>
      <trkpt lat="45.74303" lon="5.45254">
        <ele>234</ele>
        <time>2012-07-11T13:39:09Z</time>
      </trkpt>
      <trkpt lat="45.74374" lon="5.44964">
        <ele>232</ele>
        <time>2012-07-11T13:40:10Z</time>
      </trkpt>
      <trkpt lat="45.74706" lon="5.44857">
        <ele>241</ele>
        <time>2012-07-11T13:42:16Z</time>
      </trkpt>
      <trkpt lat="45.75152" lon="5.44442">
        <ele>251</ele>
        <time>2012-07-11T13:45:49Z</time>
      </trkpt>
      <trkpt lat="45.75792" lon="5.44249">
        <ele>252</ele>
        <time>2012-07-11T13:50:07Z</time>
      </trkpt>
      <trkpt lat="45.76108" lon="5.44285">
        <ele>255</ele>
        <time>2012-07-11T13:51:26Z</time>
      </trkpt>
      <trkpt lat="45.76632" lon="5.44062">
        <ele>227</ele>
        <time>2012-07-11T13:52:53Z</time>
      </trkpt>
      <trkpt lat="45.7699" lon="5.4403">
        <ele>228</ele>
        <time>2012-07-11T13:54:22Z</time>
      </trkpt>
      <trkpt lat="45.77376" lon="5.44105">
        <ele>223</ele>
        <time>2012-07-11T13:55:54Z</time>
      </trkpt>
      <trkpt lat="45.77788" lon="5.44025">
        <ele>221</ele>
        <time>2012-07-11T13:58:56Z</time>
      </trkpt>
      <trkpt lat="45.78053" lon="5.44203">
        <ele>223</ele>
        <time>2012-07-11T14:00:34Z</time>
      </trkpt>
      <trkpt lat="45.77985" lon="5.44629">
        <ele>221</ele>
        <time>2012-07-11T14:01:56Z</time>
      </trkpt>
      <trkpt lat="45.78142" lon="5.44992">
        <ele>216</ele>
        <time>2012-07-11T14:02:57Z</time>
      </trkpt>
      <trkpt lat="45.78508" lon="5.45299">
        <ele>207</ele>
        <time>2012-07-11T14:04:38Z</time>
      </trkpt>
      <trkpt lat="45.78534" lon="5.45215">
        <ele>206</ele>
        <time>2012-07-11T14:05:25Z</time>
      </trkpt>
      <trkpt lat="45.7847" lon="5.45115">
        <ele>203</ele>
        <time>2012-07-11T14:06:35Z</time>
      </trkpt>
      <trkpt lat="45.78415" lon="5.45184">
        <ele>202</ele>
        <time>2012-07-11T14:07:21Z</time>
      </trkpt>
      <trkpt lat="45.7879" lon="5.44644">
        <ele>202</ele>
        <time>2012-07-11T14:12:35Z</time>
      </trkpt>
      <trkpt lat="45.79146" lon="5.44412">
        <ele>204</ele>
        <time>2012-07-11T14:14:43Z</time>
      </trkpt>
      <trkpt lat="45.80009" lon="5.43483">
        <ele>202</ele>
        <time>2012-07-11T14:19:48Z</time>
      </trkpt>
      <trkpt lat="45.80477" lon="5.43124">
        <ele>203</ele>
        <time>2012-07-11T14:22:20Z</time>
      </trkpt>
      <trkpt lat="45.80711" lon="5.42711">
        <ele>203</ele>
        <time>2012-07-11T14:24:12Z</time>
      </trkpt>
      <trkpt lat="45.81087" lon="5.42521">
        <ele>201</ele>
        <time>2012-07-11T14:26:11Z</time>
      </trkpt>
      <trkpt lat="45.81325" lon="5.42582">
        <ele>202</ele>
        <time>2012-07-11T14:27:17Z</time>
      </trkpt>
      <trkpt lat="45.8168" lon="5.42816">
        <ele>202</ele>
        <time>2012-07-11T14:33:08Z</time>
      </trkpt>
      <trkpt lat="45.82425" lon="5.43665">
        <ele>200</ele>
        <time>2012-07-11T14:41:46Z</time>
      </trkpt>
      <trkpt lat="45.82952" lon="5.43834">
        <ele>200</ele>
        <time>2012-07-11T14:44:50Z</time>
      </trkpt>
      <trkpt lat="45.83159" lon="5.4373">
        <ele>201</ele>
        <time>2012-07-11T14:45:49Z</time>
      </trkpt>
      <trkpt lat="45.83703" lon="5.43238">
        <ele>208</ele>
        <time>2012-07-11T14:49:23Z</time>
      </trkpt>
      <trkpt lat="45.83809" lon="5.43277">
        <ele>212</ele>
        <time>2012-07-11T14:50:46Z</time>
      </trkpt>
      <trkpt lat="45.84002" lon="5.42657">
        <ele>218</ele>
        <time>2012-07-11T15:02:00Z</time>
      </trkpt>
      <trkpt lat="45.83913" lon="5.42735">
        <ele>215</ele>
        <time>2012-07-11T15:05:19Z</time>
      </trkpt>
      <trkpt lat="45.84035" lon="5.42602">
        <ele>217</ele>
        <time>2012-07-12T07:38:13Z</time>
      </trkpt>
      <trkpt lat="45.84145" lon="5.42287">
        <ele>212</ele>
        <time>2012-07-12T07:39:22Z</time>
      </trkpt>
      <trkpt lat="45.84131" lon="5.42161">
        <ele>209</ele>
        <time>2012-07-12T07:39:47Z</time>
      </trkpt>
      <trkpt lat="45.84211" lon="5.42091">
        <ele>209</ele>
        <time>2012-07-12T07:40:19Z</time>
      </trkpt>
      <trkpt lat="45.84231" lon="5.41901">
        <ele>203</ele>
        <time>2012-07-12T07:41:06Z</time>
      </trkpt>
      <trkpt lat="45.84581" lon="5.41912">
        <ele>205</ele>
        <time>2012-07-12T07:43:08Z</time>
      </trkpt>
      <trkpt lat="45.85248" lon="5.4142">
        <ele>202</ele>
        <time>2012-07-12T07:46:32Z</time>
      </trkpt>
      <trkpt lat="45.85399" lon="5.40925">
        <ele>202</ele>
        <time>2012-07-12T07:48:04Z</time>
      </trkpt>
      <trkpt lat="45.85698" lon="5.40547">
        <ele>200</ele>
        <time>2012-07-12T07:50:40Z</time>
      </trkpt>
      <trkpt lat="45.85663" lon="5.40605">
        <ele>200</ele>
        <time>2012-07-12T08:04:15Z</time>
      </trkpt>
      <trkpt lat="45.86007" lon="5.40086">
        <ele>205</ele>
        <time>2012-07-12T08:11:19Z</time>
      </trkpt>
      <trkpt lat="45.86641" lon="5.38552">
        <ele>198</ele>
        <time>2012-07-12T08:17:05Z</time>
      </trkpt>
      <trkpt lat="45.86887" lon="5.38331">
        <ele>198</ele>
        <time>2012-07-12T08:18:16Z</time>
      </trkpt>
      <trkpt lat="45.87048" lon="5.37915">
        <ele>197</ele>
        <time>2012-07-12T08:19:38Z</time>
      </trkpt>
      <trkpt lat="45.87651" lon="5.37043">
        <ele>198</ele>
        <time>2012-07-12T08:23:31Z</time>
      </trkpt>
      <trkpt lat="45.87806" lon="5.36624">
        <ele>196</ele>
        <time>2012-07-12T08:25:23Z</time>
      </trkpt>
      <trkpt lat="45.88048" lon="5.36289">
        <ele>195</ele>
        <time>2012-07-12T08:27:04Z</time>
      </trkpt>
      <trkpt lat="45.88243" lon="5.35746">
        <ele>195</ele>
        <time>2012-07-12T08:28:58Z</time>
      </trkpt>
      <trkpt lat="45.8858" lon="5.35276">
        <ele>197</ele>
        <time>2012-07-12T08:32:04Z</time>
      </trkpt>
      <trkpt lat="45.88519" lon="5.35024">
        <ele>201</ele>
        <time>2012-07-12T08:33:03Z</time>
      </trkpt>
      <trkpt lat="45.88526" lon="5.34685">
        <ele>201</ele>
        <time>2012-07-12T08:34:19Z</time>
      </trkpt>
      <trkpt lat="45.87747" lon="5.34725">
        <ele>201</ele>
        <time>2012-07-12T08:37:10Z</time>
      </trkpt>
      <trkpt lat="45.87122" lon="5.34302">
        <ele>208</ele>
        <time>2012-07-12T08:39:55Z</time>
      </trkpt>
      <trkpt lat="45.86806" lon="5.33839">
        <ele>206</ele>
        <time>2012-07-12T08:47:55Z</time>
      </trkpt>
      <trkpt lat="45.86553" lon="5.33686">
        <ele>204</ele>
        <time>2012-07-12T08:49:33Z</time>
      </trkpt>
      <trkpt lat="45.86065" lon="5.33549">
        <ele>211</ele>
        <time>2012-07-12T08:52:27Z</time>
      </trkpt>
      <trkpt lat="45.85573" lon="5.33268">
        <ele>209</ele>
        <time>2012-07-12T08:55:41Z</time>
      </trkpt>
      <trkpt lat="45.85354" lon="5.33919">
        <ele>227</ele>
        <time>2012-07-12T09:00:15Z</time>
      </trkpt>
      <trkpt lat="45.85253" lon="5.33928">
        <ele>251</ele>
        <time>2012-07-12T09:01:22Z</time>
      </trkpt>
      <trkpt lat="45.85237" lon="5.33992">
        <ele>287</ele>
        <time>2012-07-12T09:13:41Z</time>
      </trkpt>
      <trkpt lat="45.85282" lon="5.33922">
        <ele>249</ele>
        <time>2012-07-12T09:17:42Z</time>
      </trkpt>
      <trkpt lat="45.85204" lon="5.33788">
        <ele>226</ele>
        <time>2012-07-12T09:19:27Z</time>
      </trkpt>
      <trkpt lat="45.85214" lon="5.33565">
        <ele>214</ele>
        <time>2012-07-12T09:21:31Z</time>
      </trkpt>
      <trkpt lat="45.85118" lon="5.33462">
        <ele>212</ele>
        <time>2012-07-12T09:22:16Z</time>
      </trkpt>
      <trkpt lat="45.85125" lon="5.33374">
        <ele>211</ele>
        <time>2012-07-12T09:22:41Z</time>
      </trkpt>
      <trkpt lat="45.84966" lon="5.33271">
        <ele>210</ele>
        <time>2012-07-12T09:23:45Z</time>
      </trkpt>
      <trkpt lat="45.84928" lon="5.3336">
        <ele>211</ele>
        <time>2012-07-12T09:24:09Z</time>
      </trkpt>
      <trkpt lat="45.85213" lon="5.33561">
        <ele>214</ele>
        <time>2012-07-12T09:26:07Z</time>
      </trkpt>
      <trkpt lat="45.85324" lon="5.33192">
        <ele>209</ele>
        <time>2012-07-12T09:27:36Z</time>
      </trkpt>
      <trkpt lat="45.85153" lon="5.33096">
        <ele>208</ele>
        <time>2012-07-12T09:28:29Z</time>
      </trkpt>
      <trkpt lat="45.85185" lon="5.32807">
        <ele>206</ele>
        <time>2012-07-12T09:29:21Z</time>
      </trkpt>
      <trkpt lat="45.85006" lon="5.3228">
        <ele>207</ele>
        <time>2012-07-12T09:30:53Z</time>
      </trkpt>
      <trkpt lat="45.85068" lon="5.31611">
        <ele>201</ele>
        <time>2012-07-12T09:32:50Z</time>
      </trkpt>
      <trkpt lat="45.84115" lon="5.3061">
        <ele>199</ele>
        <time>2012-07-12T09:41:42Z</time>
      </trkpt>
      <trkpt lat="45.83249" lon="5.301">
        <ele>200</ele>
        <time>2012-07-12T09:45:37Z</time>
      </trkpt>
      <trkpt lat="45.82504" lon="5.29767">
        <ele>196</ele>
        <time>2012-07-12T09:48:28Z</time>
      </trkpt>
      <trkpt lat="45.82377" lon="5.29821">
        <ele>197</ele>
        <time>2012-07-12T09:48:58Z</time>
      </trkpt>
      <trkpt lat="45.82226" lon="5.29687">
        <ele>196</ele>
        <time>2012-07-12T09:49:37Z</time>
      </trkpt>
      <trkpt lat="45.81765" lon="5.29779">
        <ele>210</ele>
        <time>2012-07-12T09:52:37Z</time>
      </trkpt>
      <trkpt lat="45.81517" lon="5.29636">
        <ele>211</ele>
        <time>2012-07-12T09:53:57Z</time>
      </trkpt>
      <trkpt lat="45.81383" lon="5.3004">
        <ele>212</ele>
        <time>2012-07-12T09:55:25Z</time>
      </trkpt>
      <trkpt lat="45.81311" lon="5.30507">
        <ele>215</ele>
        <time>2012-07-12T09:57:20Z</time>
      </trkpt>
      <trkpt lat="45.80878" lon="5.30259">
        <ele>215</ele>
        <time>2012-07-12T09:59:32Z</time>
      </trkpt>
      <trkpt lat="45.80376" lon="5.30128">
        <ele>215</ele>
        <time>2012-07-12T10:02:15Z</time>
      </trkpt>
      <trkpt lat="45.80038" lon="5.30195">
        <ele>216</ele>
        <time>2012-07-12T10:03:44Z</time>
      </trkpt>
      <trkpt lat="45.79892" lon="5.30116">
        <ele>216</ele>
        <time>2012-07-12T10:04:27Z</time>
      </trkpt>
      <trkpt lat="45.79867" lon="5.30006">
        <ele>215</ele>
        <time>2012-07-12T10:07:25Z</time>
      </trkpt>
      <trkpt lat="45.79685" lon="5.30354">
        <ele>230</ele>
        <time>2012-07-12T10:09:15Z</time>
      </trkpt>
      <trkpt lat="45.79084" lon="5.3082">
        <ele>246</ele>
        <time>2012-07-12T10:12:46Z</time>
      </trkpt>
      <trkpt lat="45.78614" lon="5.30761">
        <ele>251</ele>
        <time>2012-07-12T10:58:43Z</time>
      </trkpt>
      <trkpt lat="45.79077" lon="5.30817">
        <ele>248</ele>
        <time>2012-07-12T11:30:57Z</time>
      </trkpt>
      <trkpt lat="45.79661" lon="5.30384">
        <ele>237</ele>
        <time>2012-07-12T11:33:00Z</time>
      </trkpt>
      <trkpt lat="45.79878" lon="5.30054">
        <ele>216</ele>
        <time>2012-07-12T11:34:26Z</time>
      </trkpt>
      <trkpt lat="45.79894" lon="5.29927">
        <ele>216</ele>
        <time>2012-07-12T11:40:02Z</time>
      </trkpt>
      <trkpt lat="45.79715" lon="5.29292">
        <ele>231</ele>
        <time>2012-07-12T12:12:59Z</time>
      </trkpt>
      <trkpt lat="45.7947" lon="5.29113">
        <ele>233</ele>
        <time>2012-07-12T12:15:26Z</time>
      </trkpt>
      <trkpt lat="45.79337" lon="5.28889">
        <ele>228</ele>
        <time>2012-07-12T12:16:00Z</time>
      </trkpt>
      <trkpt lat="45.7912" lon="5.28722">
        <ele>226</ele>
        <time>2012-07-12T12:16:53Z</time>
      </trkpt>
      <trkpt lat="45.78905" lon="5.28687">
        <ele>231</ele>
        <time>2012-07-12T12:18:05Z</time>
      </trkpt>
      <trkpt lat="45.78573" lon="5.28475">
        <ele>245</ele>
        <time>2012-07-12T12:20:41Z</time>
      </trkpt>
      <trkpt lat="45.78469" lon="5.28512">
        <ele>248</ele>
        <time>2012-07-12T12:21:27Z</time>
      </trkpt>
      <trkpt lat="45.78336" lon="5.28398">
        <ele>251</ele>
        <time>2012-07-12T12:23:15Z</time>
      </trkpt>
      <trkpt lat="45.7818" lon="5.28424">
        <ele>257</ele>
        <time>2012-07-12T12:23:55Z</time>
      </trkpt>
      <trkpt lat="45.77695" lon="5.28142">
        <ele>252</ele>
        <time>2012-07-12T12:25:52Z</time>
      </trkpt>
      <trkpt lat="45.7773" lon="5.28156">
        <ele>252</ele>
        <time>2012-07-12T12:26:09Z</time>
      </trkpt>
      <trkpt lat="45.77621" lon="5.28102">
        <ele>248</ele>
        <time>2012-07-12T12:28:38Z</time>
      </trkpt>
      <trkpt lat="45.77664" lon="5.27275">
        <ele>230</ele>
        <time>2012-07-12T12:31:27Z</time>
      </trkpt>
      <trkpt lat="45.77421" lon="5.27">
        <ele>221</ele>
        <time>2012-07-12T12:32:21Z</time>
      </trkpt>
      <trkpt lat="45.76992" lon="5.25347">
        <ele>204</ele>
        <time>2012-07-12T12:37:46Z</time>
      </trkpt>
      <trkpt lat="45.76663" lon="5.24592">
        <ele>201</ele>
        <time>2012-07-12T12:40:58Z</time>
      </trkpt>
      <trkpt lat="45.76599" lon="5.24171">
        <ele>200</ele>
        <time>2012-07-12T12:42:08Z</time>
      </trkpt>
      <trkpt lat="45.7627" lon="5.23276">
        <ele>200</ele>
        <time>2012-07-12T12:44:53Z</time>
      </trkpt>
      <trkpt lat="45.76422" lon="5.22362">
        <ele>199</ele>
        <time>2012-07-12T12:48:39Z</time>
      </trkpt>
      <trkpt lat="45.7659" lon="5.22197">
        <ele>195</ele>
        <time>2012-07-12T12:49:25Z</time>
      </trkpt>
      <trkpt lat="45.76594" lon="5.22114">
        <ele>196</ele>
        <time>2012-07-12T12:49:42Z</time>
      </trkpt>
      <trkpt lat="45.76681" lon="5.22101">
        <ele>195</ele>
        <time>2012-07-12T12:50:06Z</time>
      </trkpt>
      <trkpt lat="45.76756" lon="5.21331">
        <ele>194</ele>
        <time>2012-07-12T12:52:28Z</time>
      </trkpt>
      <trkpt lat="45.77017" lon="5.21056">
        <ele>192</ele>
        <time>2012-07-12T12:54:16Z</time>
      </trkpt>
      <trkpt lat="45.77144" lon="5.20591">
        <ele>192</ele>
        <time>2012-07-12T12:56:14Z</time>
      </trkpt>
      <trkpt lat="45.7691" lon="5.20544">
        <ele>195</ele>
        <time>2012-07-12T12:57:47Z</time>
      </trkpt>
      <trkpt lat="45.76928" lon="5.19985">
        <ele>195</ele>
        <time>2012-07-12T12:59:45Z</time>
      </trkpt>
      <trkpt lat="45.76657" lon="5.19494">
        <ele>199</ele>
        <time>2012-07-12T13:01:27Z</time>
      </trkpt>
      <trkpt lat="45.76688" lon="5.19142">
        <ele>198</ele>
        <time>2012-07-12T13:02:32Z</time>
      </trkpt>
      <trkpt lat="45.76635" lon="5.18843">
        <ele>197</ele>
        <time>2012-07-12T13:03:15Z</time>
      </trkpt>
      <trkpt lat="45.76645" lon="5.18305">
        <ele>197</ele>
        <time>2012-07-12T13:04:42Z</time>
      </trkpt>
      <trkpt lat="45.76863" lon="5.18244">
        <ele>201</ele>
        <time>2012-07-12T13:06:29Z</time>
      </trkpt>
      <trkpt lat="45.76979" lon="5.18394">
        <ele>200</ele>
        <time>2012-07-12T13:07:26Z</time>
      </trkpt>
      <trkpt lat="45.77143" lon="5.18361">
        <ele>200</ele>
        <time>2012-07-12T13:08:07Z</time>
      </trkpt>
      <trkpt lat="45.773" lon="5.18203">
        <ele>202</ele>
        <time>2012-07-12T13:08:58Z</time>
      </trkpt>
      <trkpt lat="45.77815" lon="5.17936">
        <ele>204</ele>
        <time>2012-07-12T13:12:20Z</time>
      </trkpt>
      <trkpt lat="45.77976" lon="5.1797">
        <ele>210</ele>
        <time>2012-07-12T13:14:08Z</time>
      </trkpt>
      <trkpt lat="45.78468" lon="5.17716">
        <ele>225</ele>
        <time>2012-07-12T13:21:13Z</time>
      </trkpt>
      <trkpt lat="45.78514" lon="5.17595">
        <ele>222</ele>
        <time>2012-07-12T13:21:57Z</time>
      </trkpt>
      <trkpt lat="45.78957" lon="5.17511">
        <ele>214</ele>
        <time>2012-07-12T13:25:41Z</time>
      </trkpt>
      <trkpt lat="45.7903" lon="5.17581">
        <ele>213</ele>
        <time>2012-07-12T13:26:10Z</time>
      </trkpt>
      <trkpt lat="45.79135" lon="5.17535">
        <ele>214</ele>
        <time>2012-07-12T13:26:43Z</time>
      </trkpt>
      <trkpt lat="45.7914" lon="5.17409">
        <ele>209</ele>
        <time>2012-07-12T13:27:03Z</time>
      </trkpt>
      <trkpt lat="45.79207" lon="5.17345">
        <ele>205</ele>
        <time>2012-07-12T13:27:21Z</time>
      </trkpt>
      <trkpt lat="45.79383" lon="5.17497">
        <ele>197</ele>
        <time>2012-07-12T13:43:01Z</time>
      </trkpt>
      <trkpt lat="45.79211" lon="5.17337">
        <ele>205</ele>
        <time>2012-07-12T13:46:00Z</time>
      </trkpt>
      <trkpt lat="45.79065" lon="5.17025">
        <ele>205</ele>
        <time>2012-07-12T13:47:43Z</time>
      </trkpt>
      <trkpt lat="45.7861" lon="5.14633">
        <ele>219</ele>
        <time>2012-07-12T13:56:36Z</time>
      </trkpt>
      <trkpt lat="45.78557" lon="5.14039">
        <ele>231</ele>
        <time>2012-07-12T14:02:39Z</time>
      </trkpt>
      <trkpt lat="45.78474" lon="5.13951">
        <ele>234</ele>
        <time>2012-07-12T14:03:47Z</time>
      </trkpt>
      <trkpt lat="45.78324" lon="5.13518">
        <ele>226</ele>
        <time>2012-07-12T14:05:39Z</time>
      </trkpt>
      <trkpt lat="45.78449" lon="5.13096">
        <ele>223</ele>
        <time>2012-07-12T14:07:19Z</time>
      </trkpt>
      <trkpt lat="45.78339" lon="5.12526">
        <ele>221</ele>
        <time>2012-07-12T14:10:20Z</time>
      </trkpt>
      <trkpt lat="45.78288" lon="5.11594">
        <ele>225</ele>
        <time>2012-07-12T14:14:18Z</time>
      </trkpt>
      <trkpt lat="45.79144" lon="5.11202">
        <ele>215</ele>
        <time>2012-07-12T14:17:46Z</time>
      </trkpt>
      <trkpt lat="45.78976" lon="5.1094">
        <ele>225</ele>
        <time>2012-07-12T14:20:08Z</time>
      </trkpt>
      <trkpt lat="45.79191" lon="5.10522">
        <ele>205</ele>
        <time>2012-07-12T14:23:53Z</time>
      </trkpt>
      <trkpt lat="45.79481" lon="5.10452">
        <ele>207</ele>
        <time>2012-07-12T14:25:08Z</time>
      </trkpt>
      <trkpt lat="45.79627" lon="5.103">
        <ele>205</ele>
        <time>2012-07-12T14:26:03Z</time>
      </trkpt>
      <trkpt lat="45.79699" lon="5.10344">
        <ele>209</ele>
        <time>2012-07-12T14:27:02Z</time>
      </trkpt>
      <trkpt lat="45.79926" lon="5.09659">
        <ele>208</ele>
        <time>2012-07-12T14:29:10Z</time>
      </trkpt>
      <trkpt lat="45.80163" lon="5.0968">
        <ele>220</ele>
        <time>2012-07-12T14:31:29Z</time>
      </trkpt>
      <trkpt lat="45.80261" lon="5.09544">
        <ele>221</ele>
        <time>2012-07-12T14:32:31Z</time>
      </trkpt>
      <trkpt lat="45.80492" lon="5.0974">
        <ele>236</ele>
        <time>2012-07-12T14:35:21Z</time>
      </trkpt>
      <trkpt lat="45.8068" lon="5.09493">
        <ele>242</ele>
        <time>2012-07-12T14:36:55Z</time>
      </trkpt>
      <trkpt lat="45.80833" lon="5.08727">
        <ele>229</ele>
        <time>2012-07-12T14:39:51Z</time>
      </trkpt>
      <trkpt lat="45.80692" lon="5.08279">
        <ele>218</ele>
        <time>2012-07-12T14:43:59Z</time>
      </trkpt>
      <trkpt lat="45.80829" lon="5.08053">
        <ele>224</ele>
        <time>2012-07-12T14:46:17Z</time>
      </trkpt>
      <trkpt lat="45.80768" lon="5.07849">
        <ele>213</ele>
        <time>2012-07-12T14:47:08Z</time>
      </trkpt>
      <trkpt lat="45.80983" lon="5.07806">
        <ele>199</ele>
        <time>2012-07-12T14:48:08Z</time>
      </trkpt>
      <trkpt lat="45.8095" lon="5.07505">
        <ele>201</ele>
        <time>2012-07-12T14:49:22Z</time>
      </trkpt>
      <trkpt lat="45.80558" lon="5.0605">
        <ele>199</ele>
        <time>2012-07-12T14:54:50Z</time>
      </trkpt>
      <trkpt lat="45.80466" lon="5.05434">
        <ele>198</ele>
        <time>2012-07-12T14:56:52Z</time>
      </trkpt>
      <trkpt lat="45.80173" lon="5.04527">
        <ele>195</ele>
        <time>2012-07-12T15:00:27Z</time>
      </trkpt>
      <trkpt lat="45.79966" lon="5.04168">
        <ele>191</ele>
        <time>2012-07-12T15:01:59Z</time>
      </trkpt>
      <trkpt lat="45.7969" lon="5.03871">
        <ele>190</ele>
        <time>2012-07-12T15:06:06Z</time>
      </trkpt>
      <trkpt lat="45.79461" lon="5.03108">
        <ele>187</ele>
        <time>2012-07-12T15:08:54Z</time>
      </trkpt>
      <trkpt lat="45.78925" lon="5.02614">
        <ele>188</ele>
        <time>2012-07-12T15:11:57Z</time>
      </trkpt>
      <trkpt lat="45.78547" lon="5.01924">
        <ele>193</ele>
        <time>2012-07-12T15:14:33Z</time>
      </trkpt>
      <trkpt lat="45.78533" lon="5.01605">
        <ele>190</ele>
        <time>2012-07-12T15:15:36Z</time>
      </trkpt>
      <trkpt lat="45.78656" lon="5.01126">
        <ele>187</ele>
        <time>2012-07-12T15:17:25Z</time>
      </trkpt>
      <trkpt lat="45.78596" lon="5.00961">
        <ele>188</ele>
        <time>2012-07-12T15:18:13Z</time>
      </trkpt>
      <trkpt lat="45.78634" lon="5.00425">
        <ele>185</ele>
        <time>2012-07-12T15:19:52Z</time>
      </trkpt>
      <trkpt lat="45.7876" lon="5.00086">
        <ele>189</ele>
        <time>2012-07-12T15:21:01Z</time>
      </trkpt>
      <trkpt lat="45.79133" lon="4.9962">
        <ele>186</ele>
        <time>2012-07-12T15:23:09Z</time>
      </trkpt>
      <trkpt lat="45.79425" lon="4.99379">
        <ele>183</ele>
        <time>2012-07-12T15:24:41Z</time>
      </trkpt>
      <trkpt lat="45.79465" lon="4.99154">
        <ele>181</ele>
        <time>2012-07-12T15:27:31Z</time>
      </trkpt>
      <trkpt lat="45.79076" lon="4.99207">
        <ele>186</ele>
        <time>2012-07-12T15:30:12Z</time>
      </trkpt>
      <trkpt lat="45.79054" lon="4.9915">
        <ele>185</ele>
        <time>2012-07-12T15:35:11Z</time>
      </trkpt>
      <trkpt lat="45.79111" lon="4.99169">
        <ele>186</ele>
        <time>2012-07-12T16:02:45Z</time>
      </trkpt>
      <trkpt lat="45.77948" lon="4.99683">
        <ele>195</ele>
        <time>2012-07-13T07:30:30Z</time>
      </trkpt>
      <trkpt lat="45.77909" lon="4.99607">
        <ele>194</ele>
        <time>2012-07-13T07:31:00Z</time>
      </trkpt>
      <trkpt lat="45.77951" lon="4.99691">
        <ele>195</ele>
        <time>2012-07-13T07:48:09Z</time>
      </trkpt>
      <trkpt lat="45.78334" lon="4.99459">
        <ele>193</ele>
        <time>2012-07-13T07:50:04Z</time>
      </trkpt>
      <trkpt lat="45.79383" lon="4.99138">
        <ele>183</ele>
        <time>2012-07-13T07:54:48Z</time>
      </trkpt>
      <trkpt lat="45.79338" lon="4.99126">
        <ele>182</ele>
        <time>2012-07-13T07:55:22Z</time>
      </trkpt>
      <trkpt lat="45.79561" lon="4.99086">
        <ele>181</ele>
        <time>2012-07-13T07:57:55Z</time>
      </trkpt>
      <trkpt lat="45.79369" lon="4.98279">
        <ele>176</ele>
        <time>2012-07-13T08:01:29Z</time>
      </trkpt>
      <trkpt lat="45.79471" lon="4.9827">
        <ele>176</ele>
        <time>2012-07-13T08:02:31Z</time>
      </trkpt>
      <trkpt lat="45.7936" lon="4.9828">
        <ele>176</ele>
        <time>2012-07-13T08:14:31Z</time>
      </trkpt>
      <trkpt lat="45.7939" lon="4.97936">
        <ele>177</ele>
        <time>2012-07-13T08:16:19Z</time>
      </trkpt>
      <trkpt lat="45.79546" lon="4.97841">
        <ele>177</ele>
        <time>2012-07-13T08:17:07Z</time>
      </trkpt>
      <trkpt lat="45.79714" lon="4.97602">
        <ele>174</ele>
        <time>2012-07-13T08:18:34Z</time>
      </trkpt>
      <trkpt lat="45.79682" lon="4.97085">
        <ele>178</ele>
        <time>2012-07-13T08:20:20Z</time>
      </trkpt>
      <trkpt lat="45.79775" lon="4.97016">
        <ele>176</ele>
        <time>2012-07-13T08:20:43Z</time>
      </trkpt>
      <trkpt lat="45.79762" lon="4.96501">
        <ele>176</ele>
        <time>2012-07-13T08:22:45Z</time>
      </trkpt>
      <trkpt lat="45.7983" lon="4.96466">
        <ele>176</ele>
        <time>2012-07-13T08:23:04Z</time>
      </trkpt>
      <trkpt lat="45.79833" lon="4.95622">
        <ele>177</ele>
        <time>2012-07-13T08:25:28Z</time>
      </trkpt>
      <trkpt lat="45.79691" lon="4.95449">
        <ele>175</ele>
        <time>2012-07-13T08:26:10Z</time>
      </trkpt>
      <trkpt lat="45.79684" lon="4.95151">
        <ele>172</ele>
        <time>2012-07-13T08:27:08Z</time>
      </trkpt>
      <trkpt lat="45.79832" lon="4.94866">
        <ele>176</ele>
        <time>2012-07-13T08:28:28Z</time>
      </trkpt>
      <trkpt lat="45.79812" lon="4.94218">
        <ele>176</ele>
        <time>2012-07-13T08:33:56Z</time>
      </trkpt>
      <trkpt lat="45.79854" lon="4.94078">
        <ele>177</ele>
        <time>2012-07-13T08:34:35Z</time>
      </trkpt>
      <trkpt lat="45.798" lon="4.94023">
        <ele>176</ele>
        <time>2012-07-13T08:34:58Z</time>
      </trkpt>
      <trkpt lat="45.79818" lon="4.93838">
        <ele>178</ele>
        <time>2012-07-13T08:35:41Z</time>
      </trkpt>
      <trkpt lat="45.80158" lon="4.9362">
        <ele>177</ele>
        <time>2012-07-13T08:37:27Z</time>
      </trkpt>
      <trkpt lat="45.80315" lon="4.93423">
        <ele>172</ele>
        <time>2012-07-13T08:38:34Z</time>
      </trkpt>
      <trkpt lat="45.80191" lon="4.92612">
        <ele>173</ele>
        <time>2012-07-13T08:41:09Z</time>
      </trkpt>
      <trkpt lat="45.79972" lon="4.92722">
        <ele>176</ele>
        <time>2012-07-13T08:42:13Z</time>
      </trkpt>
      <trkpt lat="45.79484" lon="4.92446">
        <ele>173</ele>
        <time>2012-07-13T08:44:18Z</time>
      </trkpt>
      <trkpt lat="45.79113" lon="4.90832">
        <ele>169</ele>
        <time>2012-07-13T08:48:58Z</time>
      </trkpt>
      <trkpt lat="45.79127" lon="4.90389">
        <ele>175</ele>
        <time>2012-07-13T08:50:13Z</time>
      </trkpt>
      <trkpt lat="45.78988" lon="4.9016">
        <ele>173</ele>
        <time>2012-07-13T08:51:02Z</time>
      </trkpt>
      <trkpt lat="45.78873" lon="4.89757">
        <ele>172</ele>
        <time>2012-07-13T08:52:10Z</time>
      </trkpt>
      <trkpt lat="45.789" lon="4.89595">
        <ele>175</ele>
        <time>2012-07-13T08:52:34Z</time>
      </trkpt>
      <trkpt lat="45.78761" lon="4.892">
        <ele>171</ele>
        <time>2012-07-13T08:53:37Z</time>
      </trkpt>
      <trkpt lat="45.78419" lon="4.89424">
        <ele>172</ele>
        <time>2012-07-13T08:55:16Z</time>
      </trkpt>
      <trkpt lat="45.78445" lon="4.89541">
        <ele>174</ele>
        <time>2012-07-13T08:55:52Z</time>
      </trkpt>
      <trkpt lat="45.78358" lon="4.8924">
        <ele>172</ele>
        <time>2012-07-13T08:57:28Z</time>
      </trkpt>
      <trkpt lat="45.78429" lon="4.89174">
        <ele>173</ele>
        <time>2012-07-13T08:58:00Z</time>
      </trkpt>
      <trkpt lat="45.78401" lon="4.89209">
        <ele>172</ele>
        <time>2012-07-13T08:58:13Z</time>
      </trkpt>
      <trkpt lat="45.78455" lon="4.89251">
        <ele>171</ele>
        <time>2012-07-13T08:58:50Z</time>
      </trkpt>
      <trkpt lat="45.78729" lon="4.89057">
        <ele>173</ele>
        <time>2012-07-13T09:00:23Z</time>
      </trkpt>
      <trkpt lat="45.79299" lon="4.88305">
        <ele>169</ele>
        <time>2012-07-13T09:03:40Z</time>
      </trkpt>
      <trkpt lat="45.79289" lon="4.8811">
        <ele>167</ele>
        <time>2012-07-13T09:04:13Z</time>
      </trkpt>
      <trkpt lat="45.78725" lon="4.876">
        <ele>174</ele>
        <time>2012-07-13T09:08:25Z</time>
      </trkpt>
      <trkpt lat="45.78529" lon="4.86508">
        <ele>173</ele>
        <time>2012-07-13T09:11:43Z</time>
      </trkpt>
      <trkpt lat="45.78625" lon="4.85768">
        <ele>167</ele>
        <time>2012-07-13T09:14:32Z</time>
      </trkpt>
      <trkpt lat="45.78537" lon="4.85735">
        <ele>171</ele>
        <time>2012-07-13T09:15:43Z</time>
      </trkpt>
      <trkpt lat="45.78511" lon="4.8538">
        <ele>175</ele>
        <time>2012-07-13T09:22:05Z</time>
      </trkpt>
      <trkpt lat="45.78443" lon="4.85373">
        <ele>178</ele>
        <time>2012-07-13T09:22:23Z</time>
      </trkpt>
      <trkpt lat="45.78036" lon="4.84667">
        <ele>173</ele>
        <time>2012-07-13T09:25:43Z</time>
      </trkpt>
      <trkpt lat="45.77812" lon="4.84473">
        <ele>173</ele>
        <time>2012-07-13T09:27:03Z</time>
      </trkpt>
      <trkpt lat="45.7773" lon="4.84505">
        <ele>176</ele>
        <time>2012-07-13T09:27:43Z</time>
      </trkpt>
      <trkpt lat="45.77683" lon="4.8444">
        <ele>172</ele>
        <time>2012-07-13T09:29:16Z</time>
      </trkpt>
      <trkpt lat="45.77716" lon="4.84544">
        <ele>177</ele>
        <time>2012-07-13T09:38:51Z</time>
      </trkpt>
      <trkpt lat="45.77658" lon="4.84405">
        <ele>173</ele>
        <time>2012-07-13T09:50:01Z</time>
      </trkpt>
      <trkpt lat="45.77753" lon="4.84394">
        <ele>168</ele>
        <time>2012-07-13T09:50:55Z</time>
      </trkpt>
      <trkpt lat="45.77281" lon="4.84087">
        <ele>171</ele>
        <time>2012-07-13T09:54:26Z</time>
      </trkpt>
      <trkpt lat="45.75644" lon="4.84024">
        <ele>173</ele>
        <time>2012-07-13T10:59:33Z</time>
      </trkpt>
      <trkpt lat="45.75921" lon="4.82952">
        <ele>169</ele>
        <time>2012-07-13T11:05:31Z</time>
      </trkpt>
      <trkpt lat="45.7564" lon="4.82638">
        <ele>173</ele>
        <time>2012-07-13T11:07:07Z</time>
      </trkpt>
      <trkpt lat="45.75121" lon="4.82339">
        <ele>171</ele>
        <time>2012-07-13T11:10:17Z</time>
      </trkpt>
      <trkpt lat="45.75162" lon="4.82175">
        <ele>169</ele>
        <time>2012-07-13T11:11:19Z</time>
      </trkpt>
      <trkpt lat="45.74979" lon="4.81762">
        <ele>174</ele>
        <time>2012-07-13T11:13:24Z</time>
      </trkpt>
      <trkpt lat="45.74551" lon="4.81339">
        <ele>180</ele>
        <time>2012-07-13T11:15:31Z</time>
      </trkpt>
      <trkpt lat="45.73949" lon="4.81181">
        <ele>178</ele>
        <time>2012-07-13T11:18:03Z</time>
      </trkpt>
      <trkpt lat="45.73129" lon="4.81358">
        <ele>185</ele>
        <time>2012-07-13T11:21:51Z</time>
      </trkpt>
      <trkpt lat="45.7291" lon="4.81563">
        <ele>176</ele>
        <time>2012-07-13T11:25:53Z</time>
      </trkpt>
      <trkpt lat="45.70827" lon="4.82139">
        <ele>166</ele>
        <time>2012-07-13T11:34:59Z</time>
      </trkpt>
      <trkpt lat="45.70318" lon="4.8209">
        <ele>168</ele>
        <time>2012-07-13T11:37:59Z</time>
      </trkpt>
      <trkpt lat="45.69371" lon="4.82747">
        <ele>165</ele>
        <time>2012-07-13T11:44:53Z</time>
      </trkpt>
      <trkpt lat="45.69018" lon="4.82746">
        <ele>168</ele>
        <time>2012-07-13T11:47:09Z</time>
      </trkpt>
      <trkpt lat="45.68934" lon="4.8268">
        <ele>168</ele>
        <time>2012-07-13T11:47:39Z</time>
      </trkpt>
      <trkpt lat="45.68445" lon="4.82753">
        <ele>163</ele>
        <time>2012-07-13T11:50:33Z</time>
      </trkpt>
      <trkpt lat="45.67878" lon="4.83127">
        <ele>165</ele>
        <time>2012-07-13T11:53:00Z</time>
      </trkpt>
      <trkpt lat="45.6744" lon="4.8306">
        <ele>173</ele>
        <time>2012-07-13T11:55:04Z</time>
      </trkpt>
      <trkpt lat="45.67072" lon="4.82856">
        <ele>176</ele>
        <time>2012-07-13T11:57:29Z</time>
      </trkpt>
      <trkpt lat="45.6669" lon="4.82797">
        <ele>179</ele>
        <time>2012-07-13T11:58:56Z</time>
      </trkpt>
      <trkpt lat="45.66517" lon="4.82613">
        <ele>182</ele>
        <time>2012-07-13T11:59:54Z</time>
      </trkpt>
      <trkpt lat="45.66119" lon="4.8238">
        <ele>176</ele>
        <time>2012-07-13T12:01:19Z</time>
      </trkpt>
      <trkpt lat="45.65507" lon="4.81571">
        <ele>188</ele>
        <time>2012-07-13T12:05:19Z</time>
      </trkpt>
      <trkpt lat="45.65397" lon="4.81553">
        <ele>186</ele>
        <time>2012-07-13T12:05:40Z</time>
      </trkpt>
      <trkpt lat="45.6526" lon="4.81371">
        <ele>186</ele>
        <time>2012-07-13T12:06:31Z</time>
      </trkpt>
      <trkpt lat="45.65003" lon="4.81204">
        <ele>180</ele>
        <time>2012-07-13T12:07:31Z</time>
      </trkpt>
      <trkpt lat="45.64771" lon="4.81189">
        <ele>175</ele>
        <time>2012-07-13T12:08:25Z</time>
      </trkpt>
      <trkpt lat="45.64466" lon="4.81004">
        <ele>178</ele>
        <time>2012-07-13T12:10:07Z</time>
      </trkpt>
      <trkpt lat="45.64302" lon="4.80997">
        <ele>183</ele>
        <time>2012-07-13T12:11:00Z</time>
      </trkpt>
      <trkpt lat="45.64037" lon="4.80777">
        <ele>190</ele>
        <time>2012-07-13T12:12:37Z</time>
      </trkpt>
      <trkpt lat="45.6354" lon="4.80582">
        <ele>188</ele>
        <time>2012-07-13T12:14:50Z</time>
      </trkpt>
      <trkpt lat="45.634" lon="4.80432">
        <ele>189</ele>
        <time>2012-07-13T12:15:29Z</time>
      </trkpt>
      <trkpt lat="45.62927" lon="4.80351">
        <ele>177</ele>
        <time>2012-07-13T12:16:47Z</time>
      </trkpt>
      <trkpt lat="45.62868" lon="4.80398">
        <ele>174</ele>
        <time>2012-07-13T12:17:14Z</time>
      </trkpt>
      <trkpt lat="45.61844" lon="4.80105">
        <ele>169</ele>
        <time>2012-07-13T12:20:41Z</time>
      </trkpt>
      <trkpt lat="45.61128" lon="4.79739">
        <ele>166</ele>
        <time>2012-07-13T12:26:25Z</time>
      </trkpt>
      <trkpt lat="45.60748" lon="4.79311">
        <ele>158</ele>
        <time>2012-07-13T12:27:54Z</time>
      </trkpt>
      <trkpt lat="45.60637" lon="4.78975">
        <ele>163</ele>
        <time>2012-07-13T12:28:55Z</time>
      </trkpt>
      <trkpt lat="45.60388" lon="4.79138">
        <ele>160</ele>
        <time>2012-07-13T12:31:02Z</time>
      </trkpt>
      <trkpt lat="45.60211" lon="4.78781">
        <ele>159</ele>
        <time>2012-07-13T12:31:54Z</time>
      </trkpt>
      <trkpt lat="45.59914" lon="4.78504">
        <ele>158</ele>
        <time>2012-07-13T12:33:17Z</time>
      </trkpt>
      <trkpt lat="45.59388" lon="4.77343">
        <ele>157</ele>
        <time>2012-07-13T12:37:26Z</time>
      </trkpt>
      <trkpt lat="45.59119" lon="4.77264">
        <ele>159</ele>
        <time>2012-07-13T12:38:59Z</time>
      </trkpt>
      <trkpt lat="45.59" lon="4.77581">
        <ele>157</ele>
        <time>2012-07-13T12:40:46Z</time>
      </trkpt>
      <trkpt lat="45.58653" lon="4.77429">
        <ele>158</ele>
        <time>2012-07-13T12:42:54Z</time>
      </trkpt>
      <trkpt lat="45.58311" lon="4.7769">
        <ele>154</ele>
        <time>2012-07-13T12:50:26Z</time>
      </trkpt>
      <trkpt lat="45.58584" lon="4.77168">
        <ele>159</ele>
        <time>2012-07-13T12:53:14Z</time>
      </trkpt>
      <trkpt lat="45.58424" lon="4.77138">
        <ele>158</ele>
        <time>2012-07-13T12:54:47Z</time>
      </trkpt>
      <trkpt lat="45.58242" lon="4.77323">
        <ele>162</ele>
        <time>2012-07-13T12:56:27Z</time>
      </trkpt>
      <trkpt lat="45.57791" lon="4.78656">
        <ele>159</ele>
        <time>2012-07-13T13:42:30Z</time>
      </trkpt>
      <trkpt lat="45.57212" lon="4.79424">
        <ele>162</ele>
        <time>2012-07-13T13:46:36Z</time>
      </trkpt>
      <trkpt lat="45.57155" lon="4.79339">
        <ele>168</ele>
        <time>2012-07-13T13:47:30Z</time>
      </trkpt>
      <trkpt lat="45.56605" lon="4.79759">
        <ele>170</ele>
        <time>2012-07-13T13:50:26Z</time>
      </trkpt>
      <trkpt lat="45.56573" lon="4.7996">
        <ele>164</ele>
        <time>2012-07-13T13:50:56Z</time>
      </trkpt>
      <trkpt lat="45.56288" lon="4.80287">
        <ele>160</ele>
        <time>2012-07-13T13:52:38Z</time>
      </trkpt>
      <trkpt lat="45.56233" lon="4.8044">
        <ele>161</ele>
        <time>2012-07-13T13:53:14Z</time>
      </trkpt>
      <trkpt lat="45.55984" lon="4.80565">
        <ele>169</ele>
        <time>2012-07-13T13:55:31Z</time>
      </trkpt>
      <trkpt lat="45.56138" lon="4.81201">
        <ele>155</ele>
        <time>2012-07-13T13:58:19Z</time>
      </trkpt>
      <trkpt lat="45.55587" lon="4.81586">
        <ele>155</ele>
        <time>2012-07-13T14:01:05Z</time>
      </trkpt>
      <trkpt lat="45.5509" lon="4.82325">
        <ele>154</ele>
        <time>2012-07-13T14:04:30Z</time>
      </trkpt>
      <trkpt lat="45.54687" lon="4.82732">
        <ele>155</ele>
        <time>2012-07-13T14:06:42Z</time>
      </trkpt>
      <trkpt lat="45.54669" lon="4.82922">
        <ele>158</ele>
        <time>2012-07-13T14:07:16Z</time>
      </trkpt>
      <trkpt lat="45.54332" lon="4.83462">
        <ele>155</ele>
        <time>2012-07-13T14:10:03Z</time>
      </trkpt>
      <trkpt lat="45.54178" lon="4.83867">
        <ele>153</ele>
        <time>2012-07-13T14:11:24Z</time>
      </trkpt>
      <trkpt lat="45.54045" lon="4.84481">
        <ele>152</ele>
        <time>2012-07-13T14:13:16Z</time>
      </trkpt>
      <trkpt lat="45.53937" lon="4.85403">
        <ele>150</ele>
        <time>2012-07-13T14:16:19Z</time>
      </trkpt>
      <trkpt lat="45.53843" lon="4.85465">
        <ele>153</ele>
        <time>2012-07-13T14:23:24Z</time>
      </trkpt>
      <trkpt lat="45.53726" lon="4.86146">
        <ele>150</ele>
        <time>2012-07-13T14:26:00Z</time>
      </trkpt>
      <trkpt lat="45.53497" lon="4.86773">
        <ele>149</ele>
        <time>2012-07-13T14:33:01Z</time>
      </trkpt>
      <trkpt lat="45.5313" lon="4.87165">
        <ele>151</ele>
        <time>2012-07-13T14:36:10Z</time>
      </trkpt>
      <trkpt lat="45.52895" lon="4.87134">
        <ele>153</ele>
        <time>2012-07-13T14:37:32Z</time>
      </trkpt>
      <trkpt lat="45.52414" lon="4.86803">
        <ele>151</ele>
        <time>2012-07-13T14:46:05Z</time>
      </trkpt>
      <trkpt lat="45.5142" lon="4.85601">
        <ele>155</ele>
        <time>2012-07-13T14:52:38Z</time>
      </trkpt>
      <trkpt lat="45.51292" lon="4.85331">
        <ele>156</ele>
        <time>2012-07-13T14:53:35Z</time>
      </trkpt>
      <trkpt lat="45.51241" lon="4.85344">
        <ele>152</ele>
        <time>2012-07-13T14:53:48Z</time>
      </trkpt>
      <trkpt lat="45.50152" lon="4.83893">
        <ele>150</ele>
        <time>2012-07-13T15:01:06Z</time>
      </trkpt>
      <trkpt lat="45.50182" lon="4.83857">
        <ele>151</ele>
        <time>2012-07-13T15:01:21Z</time>
      </trkpt>
      <trkpt lat="45.50023" lon="4.83241">
        <ele>149</ele>
        <time>2012-07-13T15:03:25Z</time>
      </trkpt>
      <trkpt lat="45.49663" lon="4.82587">
        <ele>149</ele>
        <time>2012-07-13T15:06:00Z</time>
      </trkpt>
      <trkpt lat="45.49765" lon="4.82471">
        <ele>154</ele>
        <time>2012-07-13T15:08:40Z</time>
      </trkpt>
      <trkpt lat="45.49624" lon="4.82238">
        <ele>152</ele>
        <time>2012-07-13T15:09:43Z</time>
      </trkpt>
      <trkpt lat="45.48703" lon="4.81473">
        <ele>152</ele>
        <time>2012-07-13T15:15:58Z</time>
      </trkpt>
      <trkpt lat="45.48581" lon="4.8125">
        <ele>150</ele>
        <time>2012-07-13T15:17:00Z</time>
      </trkpt>
      <trkpt lat="45.48682" lon="4.81141">
        <ele>151</ele>
        <time>2012-07-13T15:21:12Z</time>
      </trkpt>
      <trkpt lat="45.48634" lon="4.81039">
        <ele>151</ele>
        <time>2012-07-13T15:21:58Z</time>
      </trkpt>
      <trkpt lat="45.48655" lon="4.80754">
        <ele>149</ele>
        <time>2012-07-13T15:22:56Z</time>
      </trkpt>
      <trkpt lat="45.48327" lon="4.7985">
        <ele>146</ele>
        <time>2012-07-13T15:26:09Z</time>
      </trkpt>
      <trkpt lat="45.4838" lon="4.79485">
        <ele>150</ele>
        <time>2012-07-13T15:27:30Z</time>
      </trkpt>
      <trkpt lat="45.48281" lon="4.78873">
        <ele>152</ele>
        <time>2012-07-13T15:29:51Z</time>
      </trkpt>
      <trkpt lat="45.48063" lon="4.7883">
        <ele>146</ele>
        <time>2012-07-13T15:30:45Z</time>
      </trkpt>
      <trkpt lat="45.48044" lon="4.78565">
        <ele>148</ele>
        <time>2012-07-13T15:31:41Z</time>
      </trkpt>
      <trkpt lat="45.47928" lon="4.78301">
        <ele>153</ele>
        <time>2012-07-13T15:35:13Z</time>
      </trkpt>
      <trkpt lat="45.47663" lon="4.78165">
        <ele>147</ele>
        <time>2012-07-13T15:36:36Z</time>
      </trkpt>
      <trkpt lat="45.47668" lon="4.78101">
        <ele>151</ele>
        <time>2012-07-13T15:36:48Z</time>
      </trkpt>
      <trkpt lat="45.47071" lon="4.7775">
        <ele>148</ele>
        <time>2012-07-13T15:49:12Z</time>
      </trkpt>
      <trkpt lat="45.46973" lon="4.77857">
        <ele>146</ele>
        <time>2012-07-13T15:49:54Z</time>
      </trkpt>
      <trkpt lat="45.46747" lon="4.77894">
        <ele>144</ele>
        <time>2012-07-13T15:53:09Z</time>
      </trkpt>
      <trkpt lat="45.46601" lon="4.77713">
        <ele>146</ele>
        <time>2012-07-13T15:54:09Z</time>
      </trkpt>
      <trkpt lat="45.46476" lon="4.7794">
        <ele>146</ele>
        <time>2012-07-13T15:55:20Z</time>
      </trkpt>
      <trkpt lat="45.46296" lon="4.77875">
        <ele>146</ele>
        <time>2012-07-13T15:56:26Z</time>
      </trkpt>
      <trkpt lat="45.46346" lon="4.77931">
        <ele>146</ele>
        <time>2012-07-13T16:29:47Z</time>
      </trkpt>
      <trkpt lat="45.46048" lon="4.77652">
        <ele>147</ele>
        <time>2012-07-14T07:20:18Z</time>
      </trkpt>
      <trkpt lat="45.45926" lon="4.77215">
        <ele>146</ele>
        <time>2012-07-14T07:22:04Z</time>
      </trkpt>
      <trkpt lat="45.4578" lon="4.77081">
        <ele>144</ele>
        <time>2012-07-14T07:23:07Z</time>
      </trkpt>
      <trkpt lat="45.45826" lon="4.76528">
        <ele>145</ele>
        <time>2012-07-14T07:25:58Z</time>
      </trkpt>
      <trkpt lat="45.45787" lon="4.76163">
        <ele>143</ele>
        <time>2012-07-14T07:27:21Z</time>
      </trkpt>
      <trkpt lat="45.45871" lon="4.76087">
        <ele>146</ele>
        <time>2012-07-14T07:28:33Z</time>
      </trkpt>
      <trkpt lat="45.46035" lon="4.76478">
        <ele>150</ele>
        <time>2012-07-14T07:30:25Z</time>
      </trkpt>
      <trkpt lat="45.4577" lon="4.75732">
        <ele>151</ele>
        <time>2012-07-14T07:34:14Z</time>
      </trkpt>
      <trkpt lat="45.45748" lon="4.75773">
        <ele>146</ele>
        <time>2012-07-14T07:49:04Z</time>
      </trkpt>
      <trkpt lat="45.45759" lon="4.75725">
        <ele>151</ele>
        <time>2012-07-14T07:55:25Z</time>
      </trkpt>
      <trkpt lat="45.45687" lon="4.7579">
        <ele>146</ele>
        <time>2012-07-14T08:02:32Z</time>
      </trkpt>
      <trkpt lat="45.45578" lon="4.75514">
        <ele>146</ele>
        <time>2012-07-14T08:03:50Z</time>
      </trkpt>
      <trkpt lat="45.45484" lon="4.75431">
        <ele>144</ele>
        <time>2012-07-14T08:04:24Z</time>
      </trkpt>
      <trkpt lat="45.44851" lon="4.7537">
        <ele>138</ele>
        <time>2012-07-14T08:07:09Z</time>
      </trkpt>
      <trkpt lat="45.44266" lon="4.75569">
        <ele>145</ele>
        <time>2012-07-14T08:09:38Z</time>
      </trkpt>
      <trkpt lat="45.44144" lon="4.75534">
        <ele>147</ele>
        <time>2012-07-14T08:10:09Z</time>
      </trkpt>
      <trkpt lat="45.4406" lon="4.75661">
        <ele>146</ele>
        <time>2012-07-14T08:10:41Z</time>
      </trkpt>
      <trkpt lat="45.43825" lon="4.75641">
        <ele>147</ele>
        <time>2012-07-14T08:11:42Z</time>
      </trkpt>
      <trkpt lat="45.43642" lon="4.75756">
        <ele>145</ele>
        <time>2012-07-14T08:12:34Z</time>
      </trkpt>
      <trkpt lat="45.43441" lon="4.75693">
        <ele>143</ele>
        <time>2012-07-14T08:13:27Z</time>
      </trkpt>
      <trkpt lat="45.43217" lon="4.75505">
        <ele>144</ele>
        <time>2012-07-14T08:14:35Z</time>
      </trkpt>
      <trkpt lat="45.42176" lon="4.74203">
        <ele>143</ele>
        <time>2012-07-14T08:20:21Z</time>
      </trkpt>
      <trkpt lat="45.4186" lon="4.74048">
        <ele>141</ele>
        <time>2012-07-14T08:21:49Z</time>
      </trkpt>
      <trkpt lat="45.4148" lon="4.74003">
        <ele>144</ele>
        <time>2012-07-14T08:23:28Z</time>
      </trkpt>
      <trkpt lat="45.41404" lon="4.73752">
        <ele>146</ele>
        <time>2012-07-14T08:24:30Z</time>
      </trkpt>
      <trkpt lat="45.41397" lon="4.74026">
        <ele>142</ele>
        <time>2012-07-14T08:25:18Z</time>
      </trkpt>
      <trkpt lat="45.41233" lon="4.74059">
        <ele>143</ele>
        <time>2012-07-14T08:25:59Z</time>
      </trkpt>
      <trkpt lat="45.41205" lon="4.73993">
        <ele>141</ele>
        <time>2012-07-14T08:26:12Z</time>
      </trkpt>
      <trkpt lat="45.40943" lon="4.74073">
        <ele>141</ele>
        <time>2012-07-14T08:27:07Z</time>
      </trkpt>
      <trkpt lat="45.40478" lon="4.74386">
        <ele>143</ele>
        <time>2012-07-14T08:29:05Z</time>
      </trkpt>
      <trkpt lat="45.39709" lon="4.75208">
        <ele>141</ele>
        <time>2012-07-14T08:33:43Z</time>
      </trkpt>
      <trkpt lat="45.39" lon="4.75549">
        <ele>140</ele>
        <time>2012-07-14T08:36:49Z</time>
      </trkpt>
      <trkpt lat="45.38662" lon="4.756">
        <ele>142</ele>
        <time>2012-07-14T08:38:12Z</time>
      </trkpt>
      <trkpt lat="45.38264" lon="4.75422">
        <ele>139</ele>
        <time>2012-07-14T08:39:58Z</time>
      </trkpt>
      <trkpt lat="45.38135" lon="4.75527">
        <ele>141</ele>
        <time>2012-07-14T08:40:34Z</time>
      </trkpt>
      <trkpt lat="45.38125" lon="4.7564">
        <ele>140</ele>
        <time>2012-07-14T08:41:02Z</time>
      </trkpt>
      <trkpt lat="45.3811" lon="4.75589">
        <ele>141</ele>
        <time>2012-07-14T08:53:44Z</time>
      </trkpt>
      <trkpt lat="45.38029" lon="4.75968">
        <ele>145</ele>
        <time>2012-07-14T08:55:16Z</time>
      </trkpt>
      <trkpt lat="45.37398" lon="4.76387">
        <ele>143</ele>
        <time>2012-07-14T08:57:27Z</time>
      </trkpt>
      <trkpt lat="45.35296" lon="4.78209">
        <ele>139</ele>
        <time>2012-07-14T09:06:34Z</time>
      </trkpt>
      <trkpt lat="45.34077" lon="4.7835">
        <ele>143</ele>
        <time>2012-07-14T09:11:11Z</time>
      </trkpt>
      <trkpt lat="45.34035" lon="4.78447">
        <ele>141</ele>
        <time>2012-07-14T09:11:50Z</time>
      </trkpt>
      <trkpt lat="45.33972" lon="4.78365">
        <ele>141</ele>
        <time>2012-07-14T09:12:47Z</time>
      </trkpt>
      <trkpt lat="45.32967" lon="4.78528">
        <ele>138</ele>
        <time>2012-07-14T09:16:37Z</time>
      </trkpt>
      <trkpt lat="45.32822" lon="4.78155">
        <ele>137</ele>
        <time>2012-07-14T09:18:00Z</time>
      </trkpt>
      <trkpt lat="45.32837" lon="4.77163">
        <ele>136</ele>
        <time>2012-07-14T09:20:55Z</time>
      </trkpt>
      <trkpt lat="45.32964" lon="4.77165">
        <ele>136</ele>
        <time>2012-07-14T09:21:27Z</time>
      </trkpt>
      <trkpt lat="45.33009" lon="4.76986">
        <ele>137</ele>
        <time>2012-07-14T09:22:07Z</time>
      </trkpt>
      <trkpt lat="45.32739" lon="4.76719">
        <ele>139</ele>
        <time>2012-07-14T09:23:49Z</time>
      </trkpt>
      <trkpt lat="45.32417" lon="4.76801">
        <ele>137</ele>
        <time>2012-07-14T09:25:08Z</time>
      </trkpt>
      <trkpt lat="45.31987" lon="4.76753">
        <ele>136</ele>
        <time>2012-07-14T09:26:58Z</time>
      </trkpt>
      <trkpt lat="45.3192" lon="4.76817">
        <ele>136</ele>
        <time>2012-07-14T09:27:38Z</time>
      </trkpt>
      <trkpt lat="45.31992" lon="4.76769">
        <ele>136</ele>
        <time>2012-07-14T09:28:58Z</time>
      </trkpt>
      <trkpt lat="45.31731" lon="4.77085">
        <ele>136</ele>
        <time>2012-07-14T09:32:46Z</time>
      </trkpt>
      <trkpt lat="45.31761" lon="4.77039">
        <ele>136</ele>
        <time>2012-07-14T09:33:48Z</time>
      </trkpt>
      <trkpt lat="45.31203" lon="4.78069">
        <ele>139</ele>
        <time>2012-07-14T09:38:08Z</time>
      </trkpt>
      <trkpt lat="45.31095" lon="4.78495">
        <ele>134</ele>
        <time>2012-07-14T09:39:27Z</time>
      </trkpt>
      <trkpt lat="45.30764" lon="4.78996">
        <ele>137</ele>
        <time>2012-07-14T09:41:35Z</time>
      </trkpt>
      <trkpt lat="45.30747" lon="4.79419">
        <ele>138</ele>
        <time>2012-07-14T09:43:14Z</time>
      </trkpt>
      <trkpt lat="45.30621" lon="4.79609">
        <ele>139</ele>
        <time>2012-07-14T09:44:45Z</time>
      </trkpt>
      <trkpt lat="45.30791" lon="4.80145">
        <ele>136</ele>
        <time>2012-07-14T09:46:29Z</time>
      </trkpt>
      <trkpt lat="45.30367" lon="4.80394">
        <ele>137</ele>
        <time>2012-07-14T09:49:22Z</time>
      </trkpt>
      <trkpt lat="45.30196" lon="4.80301">
        <ele>135</ele>
        <time>2012-07-14T09:50:07Z</time>
      </trkpt>
      <trkpt lat="45.29658" lon="4.80837">
        <ele>135</ele>
        <time>2012-07-14T09:52:25Z</time>
      </trkpt>
      <trkpt lat="45.29215" lon="4.81079">
        <ele>134</ele>
        <time>2012-07-14T09:54:25Z</time>
      </trkpt>
      <trkpt lat="45.26634" lon="4.81272">
        <ele>132</ele>
        <time>2012-07-14T10:03:23Z</time>
      </trkpt>
      <trkpt lat="45.26025" lon="4.8115">
        <ele>135</ele>
        <time>2012-07-14T10:05:31Z</time>
      </trkpt>
      <trkpt lat="45.25368" lon="4.80899">
        <ele>132</ele>
        <time>2012-07-14T10:08:17Z</time>
      </trkpt>
      <trkpt lat="45.25215" lon="4.80977">
        <ele>138</ele>
        <time>2012-07-14T10:09:35Z</time>
      </trkpt>
      <trkpt lat="45.25153" lon="4.81108">
        <ele>137</ele>
        <time>2012-07-14T10:10:25Z</time>
      </trkpt>
      <trkpt lat="45.24452" lon="4.80624">
        <ele>139</ele>
        <time>2012-07-14T10:14:00Z</time>
      </trkpt>
      <trkpt lat="45.24475" lon="4.80319">
        <ele>132</ele>
        <time>2012-07-14T10:15:18Z</time>
      </trkpt>
      <trkpt lat="45.24212" lon="4.8026">
        <ele>131</ele>
        <time>2012-07-14T10:18:09Z</time>
      </trkpt>
      <trkpt lat="45.237" lon="4.80376">
        <ele>130</ele>
        <time>2012-07-14T10:20:40Z</time>
      </trkpt>
      <trkpt lat="45.23906" lon="4.80626">
        <ele>132</ele>
        <time>2012-07-14T10:21:59Z</time>
      </trkpt>
      <trkpt lat="45.23855" lon="4.80657">
        <ele>131</ele>
        <time>2012-07-14T10:22:22Z</time>
      </trkpt>
      <trkpt lat="45.2368" lon="4.8051">
        <ele>131</ele>
        <time>2012-07-14T10:23:20Z</time>
      </trkpt>
      <trkpt lat="45.23296" lon="4.80422">
        <ele>131</ele>
        <time>2012-07-14T10:24:56Z</time>
      </trkpt>
      <trkpt lat="45.22803" lon="4.80421">
        <ele>132</ele>
        <time>2012-07-14T10:27:13Z</time>
      </trkpt>
      <trkpt lat="45.21897" lon="4.80844">
        <ele>130</ele>
        <time>2012-07-14T10:30:59Z</time>
      </trkpt>
      <trkpt lat="45.21233" lon="4.80993">
        <ele>129</ele>
        <time>2012-07-14T10:33:47Z</time>
      </trkpt>
      <trkpt lat="45.2055" lon="4.81387">
        <ele>130</ele>
        <time>2012-07-14T10:36:41Z</time>
      </trkpt>
      <trkpt lat="45.20262" lon="4.8137">
        <ele>130</ele>
        <time>2012-07-14T10:44:11Z</time>
      </trkpt>
      <trkpt lat="45.1986" lon="4.80805">
        <ele>130</ele>
        <time>2012-07-14T12:03:48Z</time>
      </trkpt>
      <trkpt lat="45.19459" lon="4.80758">
        <ele>130</ele>
        <time>2012-07-14T12:05:31Z</time>
      </trkpt>
      <trkpt lat="45.18452" lon="4.81384">
        <ele>134</ele>
        <time>2012-07-14T12:10:53Z</time>
      </trkpt>
      <trkpt lat="45.18371" lon="4.80927">
        <ele>131</ele>
        <time>2012-07-14T12:13:32Z</time>
      </trkpt>
      <trkpt lat="45.18415" lon="4.80758">
        <ele>129</ele>
        <time>2012-07-14T12:14:01Z</time>
      </trkpt>
      <trkpt lat="45.18326" lon="4.80702">
        <ele>128</ele>
        <time>2012-07-14T12:14:36Z</time>
      </trkpt>
      <trkpt lat="45.18116" lon="4.80802">
        <ele>127</ele>
        <time>2012-07-14T12:15:39Z</time>
      </trkpt>
      <trkpt lat="45.18128" lon="4.80977">
        <ele>129</ele>
        <time>2012-07-14T12:16:23Z</time>
      </trkpt>
      <trkpt lat="45.17959" lon="4.80981">
        <ele>127</ele>
        <time>2012-07-14T12:17:05Z</time>
      </trkpt>
      <trkpt lat="45.1746" lon="4.80695">
        <ele>130</ele>
        <time>2012-07-14T12:19:22Z</time>
      </trkpt>
      <trkpt lat="45.17388" lon="4.80731">
        <ele>130</ele>
        <time>2012-07-14T12:19:47Z</time>
      </trkpt>
      <trkpt lat="45.17349" lon="4.80558">
        <ele>132</ele>
        <time>2012-07-14T12:20:27Z</time>
      </trkpt>
      <trkpt lat="45.1697" lon="4.80538">
        <ele>145</ele>
        <time>2012-07-14T12:23:01Z</time>
      </trkpt>
      <trkpt lat="45.1628" lon="4.81005">
        <ele>136</ele>
        <time>2012-07-14T12:26:03Z</time>
      </trkpt>
      <trkpt lat="45.16106" lon="4.8122">
        <ele>135</ele>
        <time>2012-07-14T12:27:51Z</time>
      </trkpt>
      <trkpt lat="45.15928" lon="4.81592">
        <ele>131</ele>
        <time>2012-07-14T12:29:34Z</time>
      </trkpt>
      <trkpt lat="45.15905" lon="4.81778">
        <ele>126</ele>
        <time>2012-07-14T12:30:14Z</time>
      </trkpt>
      <trkpt lat="45.15788" lon="4.81884">
        <ele>126</ele>
        <time>2012-07-14T12:30:51Z</time>
      </trkpt>
      <trkpt lat="45.15699" lon="4.821">
        <ele>128</ele>
        <time>2012-07-14T12:31:43Z</time>
      </trkpt>
      <trkpt lat="45.15521" lon="4.82298">
        <ele>129</ele>
        <time>2012-07-14T12:32:54Z</time>
      </trkpt>
      <trkpt lat="45.15154" lon="4.82289">
        <ele>124</ele>
        <time>2012-07-14T12:34:45Z</time>
      </trkpt>
      <trkpt lat="45.14506" lon="4.81529">
        <ele>125</ele>
        <time>2012-07-14T12:39:09Z</time>
      </trkpt>
      <trkpt lat="45.146" lon="4.81107">
        <ele>134</ele>
        <time>2012-07-14T12:45:13Z</time>
      </trkpt>
      <trkpt lat="45.14302" lon="4.80816">
        <ele>134</ele>
        <time>2012-07-14T12:46:50Z</time>
      </trkpt>
      <trkpt lat="45.13966" lon="4.80718">
        <ele>131</ele>
        <time>2012-07-14T12:48:06Z</time>
      </trkpt>
      <trkpt lat="45.13868" lon="4.80841">
        <ele>128</ele>
        <time>2012-07-14T12:49:13Z</time>
      </trkpt>
      <trkpt lat="45.13701" lon="4.80526">
        <ele>124</ele>
        <time>2012-07-14T12:50:41Z</time>
      </trkpt>
      <trkpt lat="45.13502" lon="4.80314">
        <ele>133</ele>
        <time>2012-07-14T12:52:13Z</time>
      </trkpt>
      <trkpt lat="45.12105" lon="4.80103">
        <ele>126</ele>
        <time>2012-07-14T13:11:57Z</time>
      </trkpt>
      <trkpt lat="45.1205" lon="4.80357">
        <ele>122</ele>
        <time>2012-07-14T13:12:39Z</time>
      </trkpt>
      <trkpt lat="45.11901" lon="4.80559">
        <ele>120</ele>
        <time>2012-07-14T13:13:28Z</time>
      </trkpt>
      <trkpt lat="45.10946" lon="4.81335">
        <ele>121</ele>
        <time>2012-07-14T13:18:02Z</time>
      </trkpt>
      <trkpt lat="45.10765" lon="4.81684">
        <ele>122</ele>
        <time>2012-07-14T13:19:16Z</time>
      </trkpt>
      <trkpt lat="45.10411" lon="4.82034">
        <ele>122</ele>
        <time>2012-07-14T13:21:04Z</time>
      </trkpt>
      <trkpt lat="45.10252" lon="4.82289">
        <ele>125</ele>
        <time>2012-07-14T13:22:30Z</time>
      </trkpt>
      <trkpt lat="45.10051" lon="4.82408">
        <ele>123</ele>
        <time>2012-07-14T13:23:51Z</time>
      </trkpt>
      <trkpt lat="45.0974" lon="4.82863">
        <ele>123</ele>
        <time>2012-07-14T13:26:36Z</time>
      </trkpt>
      <trkpt lat="45.09511" lon="4.82873">
        <ele>122</ele>
        <time>2012-07-14T13:28:12Z</time>
      </trkpt>
      <trkpt lat="45.09701" lon="4.82695">
        <ele>127</ele>
        <time>2012-07-14T13:30:00Z</time>
      </trkpt>
      <trkpt lat="45.09697" lon="4.82568">
        <ele>123</ele>
        <time>2012-07-14T13:30:36Z</time>
      </trkpt>
      <trkpt lat="45.0946" lon="4.82704">
        <ele>121</ele>
        <time>2012-07-14T13:32:38Z</time>
      </trkpt>
      <trkpt lat="45.08634" lon="4.82902">
        <ele>123</ele>
        <time>2012-07-14T13:37:06Z</time>
      </trkpt>
      <trkpt lat="45.08107" lon="4.82642">
        <ele>120</ele>
        <time>2012-07-14T13:43:02Z</time>
      </trkpt>
      <trkpt lat="45.07765" lon="4.82602">
        <ele>122</ele>
        <time>2012-07-14T13:44:38Z</time>
      </trkpt>
      <trkpt lat="45.07584" lon="4.82462">
        <ele>122</ele>
        <time>2012-07-14T13:45:53Z</time>
      </trkpt>
      <trkpt lat="45.07714" lon="4.82195">
        <ele>120</ele>
        <time>2012-07-14T13:47:24Z</time>
      </trkpt>
      <trkpt lat="45.07651" lon="4.81553">
        <ele>121</ele>
        <time>2012-07-14T13:49:35Z</time>
      </trkpt>
      <trkpt lat="45.07356" lon="4.81797">
        <ele>122</ele>
        <time>2012-07-14T13:51:19Z</time>
      </trkpt>
      <trkpt lat="45.07228" lon="4.82198">
        <ele>126</ele>
        <time>2012-07-14T13:52:39Z</time>
      </trkpt>
      <trkpt lat="45.07293" lon="4.82314">
        <ele>124</ele>
        <time>2012-07-14T13:55:31Z</time>
      </trkpt>
      <trkpt lat="45.07246" lon="4.82604">
        <ele>122</ele>
        <time>2012-07-14T14:00:22Z</time>
      </trkpt>
      <trkpt lat="45.06984" lon="4.83055">
        <ele>120</ele>
        <time>2012-07-14T14:07:47Z</time>
      </trkpt>
      <trkpt lat="45.06878" lon="4.83012">
        <ele>125</ele>
        <time>2012-07-14T14:20:24Z</time>
      </trkpt>
      <trkpt lat="45.06914" lon="4.82982">
        <ele>124</ele>
        <time>2012-07-14T14:23:36Z</time>
      </trkpt>
      <trkpt lat="45.06882" lon="4.83268">
        <ele>123</ele>
        <time>2012-07-14T14:33:02Z</time>
      </trkpt>
      <trkpt lat="45.06569" lon="4.83996">
        <ele>117</ele>
        <time>2012-07-14T14:36:39Z</time>
      </trkpt>
      <trkpt lat="45.06888" lon="4.84196">
        <ele>122</ele>
        <time>2012-07-14T14:38:39Z</time>
      </trkpt>
      <trkpt lat="45.0681" lon="4.84138">
        <ele>121</ele>
        <time>2012-07-14T14:39:27Z</time>
      </trkpt>
      <trkpt lat="45.06553" lon="4.85364">
        <ele>119</ele>
        <time>2012-07-14T14:43:52Z</time>
      </trkpt>
      <trkpt lat="45.06375" lon="4.85745">
        <ele>119</ele>
        <time>2012-07-14T14:45:10Z</time>
      </trkpt>
      <trkpt lat="45.06109" lon="4.86006">
        <ele>119</ele>
        <time>2012-07-14T14:46:28Z</time>
      </trkpt>
      <trkpt lat="45.05584" lon="4.86217">
        <ele>117</ele>
        <time>2012-07-14T14:48:41Z</time>
      </trkpt>
      <trkpt lat="45.05252" lon="4.86129">
        <ele>117</ele>
        <time>2012-07-14T14:50:01Z</time>
      </trkpt>
      <trkpt lat="45.04714" lon="4.85703">
        <ele>116</ele>
        <time>2012-07-14T14:52:46Z</time>
      </trkpt>
      <trkpt lat="45.04003" lon="4.84678">
        <ele>113</ele>
        <time>2012-07-14T14:56:57Z</time>
      </trkpt>
      <trkpt lat="45.03394" lon="4.84233">
        <ele>117</ele>
        <time>2012-07-14T14:59:38Z</time>
      </trkpt>
      <trkpt lat="45.02953" lon="4.8421">
        <ele>115</ele>
        <time>2012-07-14T15:01:30Z</time>
      </trkpt>
      <trkpt lat="45.02667" lon="4.8433">
        <ele>119</ele>
        <time>2012-07-14T15:02:42Z</time>
      </trkpt>
      <trkpt lat="45.01364" lon="4.85542">
        <ele>116</ele>
        <time>2012-07-14T15:09:35Z</time>
      </trkpt>
      <trkpt lat="44.9928" lon="4.86737">
        <ele>114</ele>
        <time>2012-07-14T15:29:23Z</time>
      </trkpt>
      <trkpt lat="44.99537" lon="4.86859">
        <ele>117</ele>
        <time>2012-07-14T15:31:18Z</time>
      </trkpt>
      <trkpt lat="44.99407" lon="4.8711">
        <ele>113</ele>
        <time>2012-07-14T15:32:42Z</time>
      </trkpt>
      <trkpt lat="44.99077" lon="4.86967">
        <ele>115</ele>
        <time>2012-07-14T15:33:53Z</time>
      </trkpt>
      <trkpt lat="44.98565" lon="4.8656">
        <ele>116</ele>
        <time>2012-07-14T15:36:03Z</time>
      </trkpt>
      <trkpt lat="44.98262" lon="4.86003">
        <ele>114</ele>
        <time>2012-07-14T15:37:55Z</time>
      </trkpt>
      <trkpt lat="44.98118" lon="4.85874">
        <ele>113</ele>
        <time>2012-07-14T15:38:35Z</time>
      </trkpt>
      <trkpt lat="44.97687" lon="4.85869">
        <ele>116</ele>
        <time>2012-07-14T15:40:15Z</time>
      </trkpt>
      <trkpt lat="44.97401" lon="4.86025">
        <ele>114</ele>
        <time>2012-07-14T15:41:30Z</time>
      </trkpt>
      <trkpt lat="44.97423" lon="4.8616">
        <ele>120</ele>
        <time>2012-07-14T15:42:00Z</time>
      </trkpt>
      <trkpt lat="44.9735" lon="4.86279">
        <ele>121</ele>
        <time>2012-07-14T15:42:24Z</time>
      </trkpt>
      <trkpt lat="44.97213" lon="4.86891">
        <ele>125</ele>
        <time>2012-07-14T15:45:13Z</time>
      </trkpt>
      <trkpt lat="44.96998" lon="4.87481">
        <ele>127</ele>
        <time>2012-07-14T15:47:33Z</time>
      </trkpt>
      <trkpt lat="44.96728" lon="4.87444">
        <ele>119</ele>
        <time>2012-07-14T15:48:29Z</time>
      </trkpt>
      <trkpt lat="44.96446" lon="4.87114">
        <ele>116</ele>
        <time>2012-07-14T15:49:53Z</time>
      </trkpt>
      <trkpt lat="44.96341" lon="4.8716">
        <ele>114</ele>
        <time>2012-07-14T15:50:19Z</time>
      </trkpt>
      <trkpt lat="44.96234" lon="4.87332">
        <ele>112</ele>
        <time>2012-07-14T15:50:59Z</time>
      </trkpt>
      <trkpt lat="44.96267" lon="4.874">
        <ele>113</ele>
        <time>2012-07-14T15:51:14Z</time>
      </trkpt>
      <trkpt lat="44.95978" lon="4.87758">
        <ele>111</ele>
        <time>2012-07-14T15:53:57Z</time>
      </trkpt>
      <trkpt lat="44.957" lon="4.8795">
        <ele>109</ele>
        <time>2012-07-14T15:55:00Z</time>
      </trkpt>
      <trkpt lat="44.94387" lon="4.88535">
        <ele>110</ele>
        <time>2012-07-14T16:00:03Z</time>
      </trkpt>
      <trkpt lat="44.94536" lon="4.88718">
        <ele>115</ele>
        <time>2012-07-14T16:01:48Z</time>
      </trkpt>
      <trkpt lat="44.9435" lon="4.89242">
        <ele>118</ele>
        <time>2012-07-14T16:03:45Z</time>
      </trkpt>
      <trkpt lat="44.94066" lon="4.89369">
        <ele>114</ele>
        <time>2012-07-14T16:04:53Z</time>
      </trkpt>
      <trkpt lat="44.93677" lon="4.89326">
        <ele>120</ele>
        <time>2012-07-14T16:06:51Z</time>
      </trkpt>
      <trkpt lat="44.93601" lon="4.89216">
        <ele>123</ele>
        <time>2012-07-14T16:08:00Z</time>
      </trkpt>
      <trkpt lat="44.93514" lon="4.89469">
        <ele>131</ele>
        <time>2012-07-14T16:10:06Z</time>
      </trkpt>
      <trkpt lat="44.93366" lon="4.89633">
        <ele>131</ele>
        <time>2012-07-14T16:11:14Z</time>
      </trkpt>
      <trkpt lat="44.9304" lon="4.89437">
        <ele>131</ele>
        <time>2012-07-14T16:12:49Z</time>
      </trkpt>
      <trkpt lat="44.93048" lon="4.89004">
        <ele>128</ele>
        <time>2012-07-14T16:14:18Z</time>
      </trkpt>
      <trkpt lat="44.92908" lon="4.88922">
        <ele>128</ele>
        <time>2012-07-14T16:15:21Z</time>
      </trkpt>
      <trkpt lat="44.92925" lon="4.88846">
        <ele>124</ele>
        <time>2012-07-14T16:17:22Z</time>
      </trkpt>
    </trkseg>
  </trk>
</gpx>